| Place | Name | Time | Raw score | Score |
|---|---|---|---|---|
| 1 | -DarkLlama- | 1:54.49 | 1,000 | 426 |
| 2 | Bile | 1:54.77 | 900 | 384 |
| 3 | Ferreus | 1:55.70 | 859 | 366 |
| 4 | Jay2a | 1:56.03 | 827 | 353 |
| 5 | KnightBane | 1:58.04 | 800 | 341 |
| 6 | Carl | 1:59.04 | 777 | 331 |
| 7 | slug ʕ●.●ʔ | 1:59.06 | 756 | 322 |
| 8 | Freud | 1:59.46 | 736 | 314 |
| 9 | Terrapin | 1:59.79 | 718 | 306 |
| 10 | Tiyenti | 1:59.97 | 700 | 298 |
| 11 | dannyburke03 | 2:00.23 | 684 | 292 |
| 12 | pigpenguin | 2:01.55 | 669 | 285 |
| 13 | XiQu3sT | 2:02.01 | 654 | 279 |
| 14 | OMANEYE | 2:02.94 | 640 | 273 |
| 15 | Californ1a | 2:03.09 | 626 | 267 |
| 16 | Nico | 2:03.73 | 613 | 261 |
| 17 | Kinix | 2:03.95 | 600 | 256 |
| 18 | Mei Rummy-chan | 2:04.95 | 588 | 251 |
| 19 | Nerf | 2:05.28 | 576 | 246 |
| 20 | Waonder | 2:05.29 | 565 | 241 |
| 21 | Backgrounds' | 2:05.81 | 553 | 236 |
| 22 | Haunted Pleb | 2:06.34 | 542 | 231 |
| 23 | SlowScan | 2:06.41 | 531 | 226 |
| 24 | IllKIllU | 2:06.52 | 521 | 222 |
| 25 | Tribow | 2:06.65 | 511 | 218 |
| 26 | Dimitri | 2:08.39 | 500 | 213 |
| 27 | jason | 2:09.39 | 491 | 209 |
| 28 | Mafn | 2:10.31 | 481 | 205 |
| 29 | [deleted] | 2:10.45 | 471 | 201 |
| 30 | Draygone | 2:12.12 | 462 | 197 |
| 31 | Thermos | 2:12.19 | 453 | 193 |
| 32 | i0nTempest | 2:12.20 | 444 | 189 |
| 33 | Sayrix | 2:12.27 | 435 | 185 |
| 34 | Bridge | 2:13.25 | 426 | 182 |
| 35 | Zany | 2:14.59 | 417 | 178 |
| 36 | timawesomeness | 2:14.60 | 409 | 174 |
| 37 | RaiderZulu | 2:15.06 | 400 | 171 |
| 38 | FluffyTheZombii | 2:15.46 | 392 | 167 |
| 39 | Kenaz | 2:15.47 | 384 | 164 |
| 40 | Sidewinder Fang | 2:15.87 | 376 | 160 |
| 41 | Wourder | 2:16.50 | 368 | 157 |
| 42 | DasGerippe | 2:16.73 | 360 | 153 |
| 43 | NyctoGT | 2:17.20 | 352 | 150 |
| 44 | < blank > | 2:17.39 | 345 | 147 |
| 45 | cerberus❤ | 2:17.43 | 337 | 144 |
| 46 | notguts | 2:17.88 | 330 | 141 |
| 47 | Aku | 2:17.95 | 322 | 137 |
| 48 | Blu3 | 2:18.53 | 315 | 134 |
| 49 | Camel | 2:18.70 | 308 | 131 |
| 49 | DefenderOfHyrule | 2:18.70 | 308 | 131 |
| 51 | Ebeta2 | 2:19.20 | 293 | 125 |
| 52 | ViryGo19 | 2:19.28 | 286 | 122 |
| 53 | Sunrider Lightbringer | 2:19.29 | 279 | 119 |
| 54 | Paparazzi | 2:19.33 | 272 | 116 |
| 54 | ash | 2:19.33 | 272 | 116 |
| 56 | Predatory_Balloon | 2:19.34 | 259 | 110 |
| 57 | dinkleb3rg | 2:19.42 | 252 | 107 |
| 58 | levinv270 | 2:19.51 | 246 | 105 |
| 59 | Thaumic | 2:19.54 | 239 | 102 |
| 60 | Ohnoitsmangofett | 2:19.68 | 232 | 99 |
| 61 | Pelerin | 2:19.69 | 226 | 96 |
| 62 | RetaliationGuy YT | 2:19.87 | 219 | 93 |
| 63 | TerraHawk | 2:19.91 | 213 | 91 |
| 64 | burger | 2:19.97 | 207 | 88 |
| 65 | G9 | 2:20.18 | 200 | 85 |
| 66 | Dark Lord Elliott | 2:20.27 | 194 | 83 |
| 67 | Kibōchen | 2:20.35 | 188 | 80 |
| 68 | Lin | 2:20.37 | 182 | 78 |
| 69 | JDthe3rd | 2:20.42 | 176 | 75 |
| 70 | Joti | 2:20.48 | 170 | 72 |
| 71 | Brionac | 2:20.62 | 164 | 70 |
| 72 | R. | 2:20.66 | 158 | 67 |
| 73 | Jarminx | 2:20.67 | 152 | 65 |
| 74 | LeFluffySquirrel | 2:20.70 | 146 | 62 |
| 75 | PinesOfChaos | 2:20.72 | 140 | 60 |
| 75 | Azure Zakura | 2:20.72 | 140 | 60 |
| 77 | Maxter Max | 2:20.75 | 129 | 55 |
| 78 | MaestroNek | 2:20.82 | 123 | 52 |
| 79 | lucascool12 | 2:20.85 | 117 | 50 |
| 80 | gingerette95 | 2:20.98 | 112 | 48 |
| 81 | Shady Inktail | 2:21.01 | 106 | 45 |
| 82 | DisQorded | 2:21.05 | 100 | 43 |
| 83 | kivito | 2:21.06 | 95 | 41 |
| 84 | Tem | 2:21.08 | 89 | 38 |
| 85 | TheEvilMidnightBomber | 2:21.10 | 84 | 36 |
| 86 | MyurrDurr | 2:21.12 | 79 | 34 |
| 87 | Alopex | 2:21.17 | 73 | 31 |
| 87 | IIRMPII | 2:21.17 | 73 | 31 |
| 89 | Epsilon_Knight | 2:21.30 | 62 | 26 |
| 90 | kriz_chan | 2:21.32 | 57 | 24 |
| 91 | lift your tail for me | 2:21.41 | 52 | 22 |
| 92 | Geraldo | 2:21.46 | 47 | 20 |
| 93 | Dracheron | 2:21.48 | 41 | 17 |
| 94 | G_M | 2:21.52 | 36 | 15 |
| 95 | Viridus | 2:21.60 | 31 | 13 |
| 96 | Purple Bomber | 2:21.61 | 26 | 11 |
| 97 | UnFefeSauvage | 2:21.62 | 21 | 9 |
| 98 | Nirom | 2:21.65 | 16 | 7 |
| 99 | Loopsty | 2:21.67 | 11 | 5 |
| 100 | Fwiffo | 2:21.71 | 6 | 3 |
| 101 | gp | 2:21.74 | 0 | 0 |
| 101 | CHAINSAW MONKEY! | 2:21.74 | 0 | 0 |
| 101 | chud | 2:21.74 | 0 | 0 |
| 104 | Meda | 2:21.79 | 0 | 0 |
| 105 | CrazyGamer742 | 2:21.84 | 0 | 0 |
| 106 | lefor0416 | 2:21.85 | 0 | 0 |
| 107 | Latapi | 2:21.86 | 0 | 0 |
| 108 | Deadeye_X7 | 2:21.87 | 0 | 0 |
| 109 | Buck | 2:21.92 | 0 | 0 |
| 109 | TheMelonGod | 2:21.92 | 0 | 0 |
| 111 | Kaliphear | 2:21.93 | 0 | 0 |
| 112 | supersmily5 | 2:21.97 | 0 | 0 |
| 113 | Ravicale | 2:22.03 | 0 | 0 |
| 114 | ant | 2:22.05 | 0 | 0 |
| 115 | ReallyDumbFox | 2:22.08 | 0 | 0 |
| 115 | Ruslan145 | 2:22.08 | 0 | 0 |
| 115 | Lob u long time long time | 2:22.08 | 0 | 0 |
| 118 | Chase | 2:22.15 | 0 | 0 |
| 119 | Holo | 2:22.17 | 0 | 0 |
| 120 | The Unusual Suspect | 2:22.20 | 0 | 0 |
| 121 | Quirked-up White Boy | 2:22.24 | 0 | 0 |
| 122 | Chipboard | 2:22.30 | 0 | 0 |
| 123 | Breezy™ | 2:22.31 | 0 | 0 |
| 124 | BlacKat | 2:22.32 | 0 | 0 |
| 124 | Jam0344 | 2:22.32 | 0 | 0 |
| 126 | EndlessGaming | 2:22.33 | 0 | 0 |
| 127 | LittleKittyArtemis | 2:22.35 | 0 | 0 |
| 128 | Saujii2 | 2:22.37 | 0 | 0 |
| 129 | kashyyyke | 2:22.42 | 0 | 0 |
| 130 | greenscorpeon3 | 2:22.48 | 0 | 0 |
| 131 | [REDACTED] | 2:22.50 | 0 | 0 |
| 132 | The Mighty Condor | 2:22.53 | 0 | 0 |
| 133 | Xandrak | 2:22.54 | 0 | 0 |
| 133 | BigThiccYeet | 2:22.54 | 0 | 0 |
| 135 | Epikku | 2:22.55 | 0 | 0 |
| 136 | Melee Only | 2:22.60 | 0 | 0 |
| 137 | Kypar | 2:22.62 | 0 | 0 |
| 138 | Armando | 2:22.68 | 0 | 0 |
| 139 | Dosilox | 2:22.74 | 0 | 0 |
| 140 | fentanyl lover <3 | 2:22.79 | 0 | 0 |
| 141 | Mambo | 2:22.83 | 0 | 0 |
| 142 | Rabbids Enjoyer | 2:22.92 | 0 | 0 |
| 142 | DPftw | 2:22.92 | 0 | 0 |
| 144 | Tombo | 2:22.94 | 0 | 0 |
| 145 | Emerald_Pick | 2:22.99 | 0 | 0 |
| 146 | Inzarin | 2:23.01 | 0 | 0 |
| 147 | NoBody | 2:23.08 | 0 | 0 |
| 148 | Zetron | 2:23.09 | 0 | 0 |
| 149 | Domino | 2:23.13 | 0 | 0 |
| 150 | Gyodesis | 2:23.16 | 0 | 0 |
| 151 | TsunaReiuji | 2:23.18 | 0 | 0 |
| 152 | trigger_segfault | 2:23.22 | 0 | 0 |
| 153 | HyperNova | 2:23.24 | 0 | 0 |
| 154 | ATOM | 2:23.30 | 0 | 0 |
| 155 | Br0TherOfW@r [ PT ] | 2:23.33 | 0 | 0 |
| 156 | snakeeye98 | 2:23.37 | 0 | 0 |
| 157 | Sunnydan | 2:23.39 | 0 | 0 |
| 158 | Birb | 2:23.45 | 0 | 0 |
| 159 | GLUBBA | 2:23.51 | 0 | 0 |
| 160 | Waterproof | 2:23.56 | 0 | 0 |
| 161 | Curious Fish | 2:23.57 | 0 | 0 |
| 162 | MP X10L | 2:23.58 | 0 | 0 |
| 163 | Ayre | 2:23.59 | 0 | 0 |
| 164 | ShotgunSalad | 2:23.60 | 0 | 0 |
| 165 | Lol Bengals | 2:23.63 | 0 | 0 |
| 166 | Stracker | 2:23.67 | 0 | 0 |
| 167 | [deleted] | 2:23.75 | 0 | 0 |
| 168 | FRX | 2:23.83 | 0 | 0 |
| 169 | MasterJedi2014 | 2:23.85 | 0 | 0 |
| 170 | Western Ice Noodle | 2:23.92 | 0 | 0 |
| 171 | Dreigo | 2:23.99 | 0 | 0 |
| 172 | -Ω- | 2:24.07 | 0 | 0 |
| 173 | SunRed | 2:24.11 | 0 | 0 |
| 174 | pcl219 | 2:24.18 | 0 | 0 |
| 175 | Angry Uber Driver | 2:24.26 | 0 | 0 |
| 176 | Myogi Night | 2:24.29 | 0 | 0 |
| 176 | Magnowser | 2:24.29 | 0 | 0 |
| 176 | Cancer Liquid | 2:24.29 | 0 | 0 |
| 179 | HARBINGER | 2:24.41 | 0 | 0 |
| 179 | Eikunai | 2:24.41 | 0 | 0 |
| 181 | r4pt0r | 2:24.46 | 0 | 0 |
| 182 | Overlord | 2:24.47 | 0 | 0 |
| 183 | WiteNite | 2:24.57 | 0 | 0 |
| 184 | sizifov | 2:24.66 | 0 | 0 |
| 185 | Lliane | 2:24.68 | 0 | 0 |
| 185 | lun4tic | 2:24.68 | 0 | 0 |
| 187 | kiwi | 2:24.69 | 0 | 0 |
| 188 | Henning | 2:24.83 | 0 | 0 |
| 189 | JayBoneJay | 2:24.85 | 0 | 0 |
| 190 | Shnurbs | 2:24.93 | 0 | 0 |
| 191 | Idle Asides | 2:25.03 | 0 | 0 |
| 192 | EleventyB | 2:25.05 | 0 | 0 |
| 193 | cocob4 | 2:25.13 | 0 | 0 |
| 194 | Numerousluke | 2:25.18 | 0 | 0 |
| 195 | PurpleSuede | 2:25.36 | 0 | 0 |
| 196 | darthbob555 | 2:25.67 | 0 | 0 |
| 197 | The_Average_Joe | 2:25.71 | 0 | 0 |
| 197 | LobaDK | 2:25.71 | 0 | 0 |
| 199 | Corecii | 2:25.80 | 0 | 0 |
| 200 | SX64 | 2:25.86 | 0 | 0 |
| 201 | Taladro Percutor Klugan | 2:25.96 | 0 | 0 |
| 202 | GTNeon | 2:26.09 | 0 | 0 |
| 203 | The Box | 2:26.14 | 0 | 0 |
| 204 | The Blue Fox | 2:26.25 | 0 | 0 |
| 205 | Snakefalls | 2:26.31 | 0 | 0 |
| 206 | Qioury | 2:26.36 | 0 | 0 |
| 207 | Cyandic | 2:26.37 | 0 | 0 |
| 208 | Joan6694 | 2:26.44 | 0 | 0 |
| 209 | itsukarine | 2:26.45 | 0 | 0 |
| 210 | khrisround2 | 2:26.47 | 0 | 0 |
| 211 | Iron_Angmar | 2:26.62 | 0 | 0 |
| 212 | Kuradis | 2:26.63 | 0 | 0 |
| 213 | DethHoun | 2:26.73 | 0 | 0 |
| 214 | baakstaff | 2:26.86 | 0 | 0 |
| 215 | Kosvid | 2:26.88 | 0 | 0 |
| 216 | posture check | 2:26.98 | 0 | 0 |
| 217 | FOG BLAST THE VENT CORE | 2:27.02 | 0 | 0 |
| 218 | Naikel [FR] | 2:27.03 | 0 | 0 |
| 219 | Onneyon | 2:27.11 | 0 | 0 |
| 220 | corvushereje | 2:27.21 | 0 | 0 |
| 221 | Sev | 2:27.22 | 0 | 0 |
| 222 | Sky_ | 2:27.29 | 0 | 0 |
| 223 | Wolf Black | 2:27.34 | 0 | 0 |
| 224 | Zineth101 | 2:27.39 | 0 | 0 |
| 225 | hi im mani | 2:27.54 | 0 | 0 |
| 226 | rayman520 | 2:27.68 | 0 | 0 |
| 227 | Defiance_LLK | 2:27.69 | 0 | 0 |
| 228 | SirDan | 2:27.76 | 0 | 0 |
| 229 | Cody | 2:27.78 | 0 | 0 |
| 230 | Mr. Bird | 2:27.79 | 0 | 0 |
| 231 | lungfish | 2:27.83 | 0 | 0 |
| 231 | Muggestutz | 2:27.83 | 0 | 0 |
| 233 | bloodorangesunrise | 2:27.87 | 0 | 0 |
| 234 | MAT D.R.⎛⎝≥⏝⏝≤⎠⎞ | 2:27.98 | 0 | 0 |
| 235 | Grev "The Editor" | 2:28.01 | 0 | 0 |
| 236 | Arphey01 | 2:28.03 | 0 | 0 |
| 237 | SukairenTTV | 2:28.13 | 0 | 0 |
| 238 | SkyRunner888 | 2:28.20 | 0 | 0 |
| 239 | A very silly man indeed | 2:28.24 | 0 | 0 |
| 240 | SenseofCLouD | 2:28.26 | 0 | 0 |
| 241 | Rex-nzk | 2:28.33 | 0 | 0 |
| 242 | Orien S. | 2:28.37 | 0 | 0 |
| 243 | GaiaGaiyus | 2:28.53 | 0 | 0 |
| 244 | Archi | 2:28.56 | 0 | 0 |
| 245 | ToasterUwU | 2:28.57 | 0 | 0 |
| 246 | James "Papa Het" Hetfield | 2:28.62 | 0 | 0 |
| 247 | Osbob | 2:28.71 | 0 | 0 |
| 248 | Koros Antavo | 2:28.73 | 0 | 0 |
| 249 | TinFoilMkIV | 2:28.75 | 0 | 0 |
| 250 | Vynll | 2:28.76 | 0 | 0 |
| 250 | Siyzerix | 2:28.76 | 0 | 0 |
| 252 | Aespher | 2:28.97 | 0 | 0 |
| 253 | Greeny^ | 2:29.01 | 0 | 0 |
| 254 | - Arlo - | 2:29.04 | 0 | 0 |
| 255 | A Live Studio Audience | 2:29.05 | 0 | 0 |
| 256 | Serenak | 2:29.07 | 0 | 0 |
| 257 | PineFreshGuy | 2:29.16 | 0 | 0 |
| 258 | dan7999 | 2:29.18 | 0 | 0 |
| 259 | Weird Pumpkin | 2:29.23 | 0 | 0 |
| 259 | Najred | 2:29.23 | 0 | 0 |
| 261 | das | 2:29.24 | 0 | 0 |
| 262 | Cptnbean | 2:29.28 | 0 | 0 |
| 263 | sounder129 | 2:29.29 | 0 | 0 |
| 264 | The Random Guy | 2:29.43 | 0 | 0 |
| 265 | EzraW118 | 2:29.44 | 0 | 0 |
| 266 | Aiko | 2:29.50 | 0 | 0 |
| 267 | LachenJager | 2:29.59 | 0 | 0 |
| 268 | MsKittyCakes | 2:29.63 | 0 | 0 |
| 269 | toniqe53 | 2:29.67 | 0 | 0 |
| 269 | TartanKitty773 | 2:29.67 | 0 | 0 |
| 271 | Badger | 2:29.71 | 0 | 0 |
| 272 | Prof. Pinwheel | 2:29.74 | 0 | 0 |
| 273 | PuppySky | 2:29.78 | 0 | 0 |
| 274 | NOVA | 2:29.79 | 0 | 0 |
| 275 | Spaceburger | 2:29.84 | 0 | 0 |
| 276 | devil make rye | 2:29.90 | 0 | 0 |
| 277 | Iris | 2:29.97 | 0 | 0 |
| 278 | PowerMeep | 2:29.98 | 0 | 0 |
| 278 | Storm the Snep | 2:29.98 | 0 | 0 |
| 280 | SWAGDOG RELOADED | 2:30.06 | 0 | 0 |
| 281 | Relics Ability | 2:30.11 | 0 | 0 |
| 282 | Mossy Shush | 2:30.15 | 0 | 0 |
| 283 | V | 2:30.18 | 0 | 0 |
| 284 | Vortexesz | 2:30.20 | 0 | 0 |
| 285 | Mar_Veloz | 2:30.22 | 0 | 0 |
| 286 | Kizo~ | 2:30.37 | 0 | 0 |
| 287 | Gloþ | 2:30.42 | 0 | 0 |
| 288 | Woody | 2:30.45 | 0 | 0 |
| 289 | 4onen | 2:30.46 | 0 | 0 |
| 290 | Warpath5156 | 2:30.52 | 0 | 0 |
| 291 | Sagara | 2:30.56 | 0 | 0 |
| 292 | Ozymandias | 2:30.65 | 0 | 0 |
| 293 | SirEldricht | 2:30.69 | 0 | 0 |
| 294 | Kincaid | 2:30.75 | 0 | 0 |
| 294 | A.K.S. | 2:30.75 | 0 | 0 |
| 296 | Caffeinated Cow | 2:30.84 | 0 | 0 |
| 297 | Nightmare | 2:30.90 | 0 | 0 |
| 298 | zombieassaultman | 2:30.91 | 0 | 0 |
| 299 | Cmacle | 2:30.92 | 0 | 0 |
| 300 | SEVEN | 2:30.93 | 0 | 0 |
| 300 | CodedCrow | 2:30.93 | 0 | 0 |
| 302 | FishMasterDiddy | 2:31.01 | 0 | 0 |
| 303 | PlΣXi | 2:31.03 | 0 | 0 |
| 304 | GekoKid | 2:31.07 | 0 | 0 |
| 305 | Nixill | 2:31.11 | 0 | 0 |
| 306 | Player145 | 2:31.12 | 0 | 0 |
| 307 | le maitre kebabier | 2:31.17 | 0 | 0 |
| 308 | ★ ADDON ★ | 2:31.18 | 0 | 0 |
| 309 | Seinah | 2:31.22 | 0 | 0 |
| 310 | Lazarus | 2:31.27 | 0 | 0 |
| 311 | Cheeky Cage | 2:31.30 | 0 | 0 |
| 312 | Серена Грац | 2:31.35 | 0 | 0 |
| 313 | Host | 2:31.36 | 0 | 0 |
| 314 | Ratchet Miles | 2:31.37 | 0 | 0 |
| 315 | Yarimi | 2:31.39 | 0 | 0 |
| 316 | Mamuuh | 2:31.40 | 0 | 0 |
| 317 | TS_Mind_Swept | 2:31.41 | 0 | 0 |
| 318 | Racheecha | 2:31.44 | 0 | 0 |
| 319 | Andy95 | 2:31.54 | 0 | 0 |
| 320 | Vulkan | 2:31.55 | 0 | 0 |
| 320 | unsthuthn | 2:31.55 | 0 | 0 |
| 322 | delfiler | 2:31.56 | 0 | 0 |
| 323 | Jaster | 2:31.80 | 0 | 0 |
| 324 | Viran | 2:31.84 | 0 | 0 |
| 325 | Jacsn | 2:31.86 | 0 | 0 |
| 326 | The K-man | 2:31.90 | 0 | 0 |
| 327 | Reus | 2:31.91 | 0 | 0 |
| 328 | VinLAURiA | 2:31.94 | 0 | 0 |
| 329 | Nickel | 2:31.98 | 0 | 0 |
| 330 | CeruleanAzura | 2:32.00 | 0 | 0 |
| 331 | 25 минут кайфа | 2:32.06 | 0 | 0 |
| 332 | RandomJK | 2:32.09 | 0 | 0 |
| 333 | Lore maker | 2:32.15 | 0 | 0 |
| 334 | DEMON | 2:32.24 | 0 | 0 |
| 335 | Twinbee | 2:32.82 | 0 | 0 |
| 336 | ExcoRage | 2:32.91 | 0 | 0 |
| 337 | Lethologica7 | 2:33.00 | 0 | 0 |
| 338 | SmackDownPete | 2:33.31 | 0 | 0 |
| 339 | Гвоздь | 2:33.40 | 0 | 0 |
| 340 | 如鱼得水! | 2:33.41 | 0 | 0 |
| 341 | Star Scuffle | 2:33.42 | 0 | 0 |
| 342 | Pompous Whale | 2:33.54 | 0 | 0 |
| 343 | Minecraft-pro | 2:33.64 | 0 | 0 |
| 344 | The Ol' Razzle Dazzle | 2:33.69 | 0 | 0 |
| 345 | Atomguy | 2:33.70 | 0 | 0 |
| 346 | Nitrium | 2:33.76 | 0 | 0 |
| 347 | MatheMSI | 2:33.78 | 0 | 0 |
| 348 | Nadius | 2:33.81 | 0 | 0 |
| 349 | Aotia | Qubic | 2:33.84 | 0 | 0 |
| 350 | NekoNachi | 2:33.91 | 0 | 0 |
| 351 | Mr. Doggy | 2:33.92 | 0 | 0 |
| 351 | itzAndre | 2:33.92 | 0 | 0 |
| 353 | Blahaj Blast | 2:33.93 | 0 | 0 |
| 354 | GoldenKiryu | 2:33.95 | 0 | 0 |
| 355 | Delhjiko | 2:34.12 | 0 | 0 |
| 356 | Hars | 2:34.15 | 0 | 0 |
| 357 | Silver~ | 2:34.19 | 0 | 0 |
| 358 | McFolt | 2:34.20 | 0 | 0 |
| 359 | SaltedFork | 2:34.22 | 0 | 0 |
| 360 | horse46 | 2:34.28 | 0 | 0 |
| 361 | Pexillien | 2:34.35 | 0 | 0 |
| 362 | TheEPROM9 LaTeX | 2:34.38 | 0 | 0 |
| 363 | Rifleroy | 2:34.45 | 0 | 0 |
| 364 | Ch1ll4x333 | 2:34.47 | 0 | 0 |
| 365 | Krazy8s | 2:34.53 | 0 | 0 |
| 365 | PantoGoose | 2:34.53 | 0 | 0 |
| 367 | RebirthProtocol | 2:34.57 | 0 | 0 |
| 368 | Dyltra | 2:34.62 | 0 | 0 |
| 369 | Gunny Waffle | 2:34.72 | 0 | 0 |
| 370 | CampingCarl | 2:34.74 | 0 | 0 |
| 370 | siafa | 2:34.74 | 0 | 0 |
| 372 | Toastmaster | 2:34.82 | 0 | 0 |
| 373 | SparkyCrusader | 2:34.85 | 0 | 0 |
| 374 | CS | 2:34.86 | 0 | 0 |
| 375 | Hayden | 2:34.91 | 0 | 0 |
| 376 | Kurk Kurk | 2:35.03 | 0 | 0 |
| 377 | Plasmawario | 2:35.04 | 0 | 0 |
| 377 | TantasStarke | 2:35.04 | 0 | 0 |
| 379 | OnyonSwomp | 2:35.09 | 0 | 0 |
| 380 | Seschbee | 2:35.11 | 0 | 0 |
| 381 | Sleve McDichael | 2:35.18 | 0 | 0 |
| 382 | kiryu gaming | 2:35.21 | 0 | 0 |
| 383 | Pryzee7 | 2:35.23 | 0 | 0 |
| 384 | Viridian | 2:35.28 | 0 | 0 |
| 385 | Suspect | 2:35.29 | 0 | 0 |
| 386 | psychoblizzard | 2:35.34 | 0 | 0 |
| 387 | CuddleStrike | 2:35.35 | 0 | 0 |
| 388 | mono | 2:35.40 | 0 | 0 |
| 389 | gusforester | 2:35.48 | 0 | 0 |
| 390 | Yak-Yo! | 2:35.54 | 0 | 0 |
| 391 | JacquetheRipper | 2:35.61 | 0 | 0 |
| 392 | Benji | 2:35.62 | 0 | 0 |
| 393 | DROCHEPOLK | 2:35.75 | 0 | 0 |
| 394 | Jesster | 2:35.77 | 0 | 0 |
| 395 | Da Doom Man | 2:35.78 | 0 | 0 |
| 396 | Chaos Titan | 2:35.88 | 0 | 0 |
| 397 | danny1234331 | 2:35.93 | 0 | 0 |
| 398 | Misplaymaker | 2:35.96 | 0 | 0 |
| 399 | Cyxxus | 2:36.02 | 0 | 0 |
| 399 | Unlight369 | 2:36.02 | 0 | 0 |
| 401 | Knight-of-Ni | 2:36.04 | 0 | 0 |
| 402 | Random-Person-507 | 2:36.05 | 0 | 0 |
| 403 | Bistdocs | 2:36.11 | 0 | 0 |
| 404 | Shaka | 2:36.14 | 0 | 0 |
| 405 | vddcore | 2:36.18 | 0 | 0 |
| 406 | Moonie | 2:36.32 | 0 | 0 |
| 407 | [Lard] Kriltch | 2:36.39 | 0 | 0 |
| 408 | BrandonK-TN | 2:36.47 | 0 | 0 |
| 409 | Knight | 2:36.48 | 0 | 0 |
| 410 | krizithy | 2:36.56 | 0 | 0 |
| 411 | IzPaladin | 2:36.61 | 0 | 0 |
| 412 | K | 2:36.62 | 0 | 0 |
| 413 | Lady Vira | 2:36.64 | 0 | 0 |
| 414 | Ktee | 2:36.81 | 0 | 0 |
| 415 | ErzoopaRTR | 2:36.96 | 0 | 0 |
| 416 | born to die | 2:37.02 | 0 | 0 |
| 417 | NeonChaosAwoo | 2:37.25 | 0 | 0 |
| 418 | ★ Star ★ | 2:37.39 | 0 | 0 |
| 419 | Bytesmee | 2:37.49 | 0 | 0 |
| 420 | Luminous | 2:37.51 | 0 | 0 |
| 421 | V_ninedude | 2:37.69 | 0 | 0 |
| 422 | Shodan | 2:37.71 | 0 | 0 |
| 423 | oCL. Kiatight | 2:37.73 | 0 | 0 |
| 424 | SuperCrunch | 2:37.75 | 0 | 0 |
| 425 | Redyoshi900 | 2:37.77 | 0 | 0 |
| 426 | JeffTheBruh | 2:37.87 | 0 | 0 |
| 427 | Divided | 2:37.94 | 0 | 0 |
| 428 | ToonFan2106 | 2:37.98 | 0 | 0 |
| 429 | Saphira Kai | 2:38.02 | 0 | 0 |
| 430 | Edragon13 | 2:38.08 | 0 | 0 |
| 431 | Norz-Öril'Kern | 2:38.14 | 0 | 0 |
| 432 | SMUG KITTY | 2:38.29 | 0 | 0 |
| 433 | Spearmint | 2:38.35 | 0 | 0 |
| 434 | Vega | 2:38.37 | 0 | 0 |
| 435 | Sir Johan | 2:38.43 | 0 | 0 |
| 436 | Retromancer | 2:38.46 | 0 | 0 |
| 437 | tawnted | 2:38.49 | 0 | 0 |
| 438 | Fat Boy Kyle | 2:38.51 | 0 | 0 |
| 439 | Falcon | 2:38.64 | 0 | 0 |
| 440 | Samn | 2:38.68 | 0 | 0 |
| 441 | Skye! | 2:38.71 | 0 | 0 |
| 442 | A̶͓̓z̷͓̍ũ̴̩r̷͔͐e̴ | 2:38.74 | 0 | 0 |
| 443 | Sun | 2:38.79 | 0 | 0 |
| 444 | Donnermax2 | 2:38.80 | 0 | 0 |
| 445 | ✱ Ale | 2:38.82 | 0 | 0 |
| 446 | DeedleFake | 2:38.84 | 0 | 0 |
| 447 | generally incompetent | 2:38.94 | 0 | 0 |
| 448 | tylercreamer | 2:39.05 | 0 | 0 |
| 449 | Hotride | 2:39.06 | 0 | 0 |
| 450 | 2:39.13 | 0 | 0 | |
| 451 | JustSolLotus | 2:39.19 | 0 | 0 |
| 452 | VI_fizz | 2:39.20 | 0 | 0 |
| 453 | Syntax | 2:39.22 | 0 | 0 |
| 454 | Gregg the Grim Reaper | 2:39.23 | 0 | 0 |
| 455 | Big Unc Benjamin | 2:39.26 | 0 | 0 |
| 456 | Mrinohk | 2:39.30 | 0 | 0 |
| 456 | Warriot | 2:39.30 | 0 | 0 |
| 458 | Uganda Knuckles | 2:39.39 | 0 | 0 |
| 459 | Coldfang | 2:39.40 | 0 | 0 |
| 460 | Diabetis4life | 2:39.46 | 0 | 0 |
| 461 | [BIT]IroncladWarbear | 2:39.55 | 0 | 0 |
| 462 | D2C | Chrisc02 | 2:39.58 | 0 | 0 |
| 463 | Big Bootiecoot | 2:39.65 | 0 | 0 |
| 464 | Razgriez | 2:39.67 | 0 | 0 |
| 465 | Frayboy15 | 2:39.69 | 0 | 0 |
| 465 | Mr. $7.63 | 2:39.69 | 0 | 0 |
| 467 | Twister | 2:39.79 | 0 | 0 |
| 468 | dryco | 2:39.82 | 0 | 0 |
| 469 | hoppits | 2:39.92 | 0 | 0 |
| 469 | Torja! | 2:39.92 | 0 | 0 |
| 471 | DarthTaco | 2:39.98 | 0 | 0 |
| 472 | shade | 2:40.01 | 0 | 0 |
| 473 | Greenfire DX | 2:40.02 | 0 | 0 |
| 474 | delladriv | 2:40.16 | 0 | 0 |
| 475 | GaMiiX46 | 2:40.19 | 0 | 0 |
| 476 | menkaru | 2:40.22 | 0 | 0 |
| 477 | PlatinumAstra | 2:40.29 | 0 | 0 |
| 478 | Dominion | 2:40.35 | 0 | 0 |
| 479 | Rain | 2:40.41 | 0 | 0 |
| 480 | hoknjok | 2:40.48 | 0 | 0 |
| 481 | Dubious | 2:40.50 | 0 | 0 |
| 482 | maSK | 2:40.65 | 0 | 0 |
| 483 | [deleted] | 2:40.89 | 0 | 0 |
| 483 | raviolifun | 2:40.89 | 0 | 0 |
| 485 | Eleven27 | 2:40.96 | 0 | 0 |
| 486 | Loreckine | 2:41.02 | 0 | 0 |
| 487 | Fary_Fenny | 2:41.13 | 0 | 0 |
| 488 | NikoDaNeko | 2:41.14 | 0 | 0 |
| 489 | Kepslok | 2:41.17 | 0 | 0 |
| 490 | Uranos | 2:41.22 | 0 | 0 |
| 491 | Dubfiance | 2:41.25 | 0 | 0 |
| 492 | TS015 | 2:41.31 | 0 | 0 |
| 493 | SilverMango | 2:41.33 | 0 | 0 |
| 494 | Yuan36 | 2:41.39 | 0 | 0 |
| 495 | Enzyme Machine | 2:41.46 | 0 | 0 |
| 496 | Sixolu-Veks | 2:41.49 | 0 | 0 |
| 497 | Lare | 2:41.52 | 0 | 0 |
| 498 | Drac7584 | 2:41.54 | 0 | 0 |
| 499 | Scarlet | 2:41.66 | 0 | 0 |
| 500 | Ae1oURed | 2:41.85 | 0 | 0 |
| 501 | Jehuty | 2:41.94 | 0 | 0 |
| 502 | Retyqui | 2:41.97 | 0 | 0 |
| 503 | Taro | 2:42.01 | 0 | 0 |
| 504 | ^jnz | 2:42.16 | 0 | 0 |
| 505 | Noah | 2:42.19 | 0 | 0 |
| 506 | Meconis | 2:42.23 | 0 | 0 |
| 507 | Pfirsichgelee | 2:42.24 | 0 | 0 |
| 508 | Amgel | 2:42.28 | 0 | 0 |
| 509 | Ivoryshovel | 2:42.30 | 0 | 0 |
| 510 | Samuel9248 | 2:42.40 | 0 | 0 |
| 511 | Battle Banana Chris Handsom | 2:42.41 | 0 | 0 |
| 512 | . | 2:42.42 | 0 | 0 |
| 513 | MickyLangello | 2:42.48 | 0 | 0 |
| 514 | Sway` | 2:42.64 | 0 | 0 |
| 514 | whoisvenven666 | 2:42.64 | 0 | 0 |
| 516 | Walter | 2:42.75 | 0 | 0 |
| 517 | Дверьё | 2:42.94 | 0 | 0 |
| 518 | Leviticus Blue | 2:43.04 | 0 | 0 |
| 519 | Aertex | 2:43.07 | 0 | 0 |
| 520 | andylegendario | 2:43.12 | 0 | 0 |
| 521 | Spacefarer | 2:43.14 | 0 | 0 |
| 522 | Mush_r00mboy | 2:43.16 | 0 | 0 |
| 523 | TheWanderer05 | 2:43.24 | 0 | 0 |
| 523 | kal3cy | 2:43.24 | 0 | 0 |
| 525 | [deleted] | 2:43.27 | 0 | 0 |
| 526 | Ultor | 2:43.28 | 0 | 0 |
| 527 | Weskil | 2:43.29 | 0 | 0 |
| 528 | Pixel_ | 2:43.32 | 0 | 0 |
| 529 | Undead | 2:43.37 | 0 | 0 |
| 529 | TaoSen | 2:43.37 | 0 | 0 |
| 531 | fettman53 | 2:43.39 | 0 | 0 |
| 531 | Grungus | 2:43.39 | 0 | 0 |
| 533 | Super_Shadow57 | 2:43.42 | 0 | 0 |
| 534 | Sensokaku | 2:43.46 | 0 | 0 |
| 535 | DobreBobre | 2:43.47 | 0 | 0 |
| 536 | skuzzzy | 2:43.54 | 0 | 0 |
| 537 | Sketuveus | 2:43.57 | 0 | 0 |
| 538 | Kelgone | 2:43.64 | 0 | 0 |
| 539 | Conduit | 2:43.66 | 0 | 0 |
| 539 | Sgt_Snowcone | 2:43.66 | 0 | 0 |
| 541 | jmdajm7 | 2:43.67 | 0 | 0 |
| 542 | 3D | 2:43.72 | 0 | 0 |
| 543 | Chaks | 2:43.74 | 0 | 0 |
| 544 | Zeta | 2:43.89 | 0 | 0 |
| 545 | Polygonalfish | 2:43.91 | 0 | 0 |
| 546 | Tesselode | 2:43.94 | 0 | 0 |
| 547 | 2020 Toyota Corolla | 2:43.99 | 0 | 0 |
| 548 | solar | 2:44.00 | 0 | 0 |
| 549 | concil | 2:44.30 | 0 | 0 |
| 550 | Grimn | 2:44.35 | 0 | 0 |
| 550 | rizyul | 2:44.35 | 0 | 0 |
| 552 | snugglebottom | 2:44.49 | 0 | 0 |
| 553 | sylvan | 2:44.50 | 0 | 0 |
| 554 | Joakim230199 | 2:44.63 | 0 | 0 |
| 555 | Harue Kuma | 2:44.64 | 0 | 0 |
| 556 | Enso | 2:44.69 | 0 | 0 |
| 557 | Monument576 | 2:44.72 | 0 | 0 |
| 558 | Papa Scorch | 2:44.74 | 0 | 0 |
| 559 | K-NiGHT | 2:44.76 | 0 | 0 |
| 560 | Monark10 | 2:44.92 | 0 | 0 |
| 561 | Entropy can't catch me. | 2:44.98 | 0 | 0 |
| 562 | Newtalot | 2:45.06 | 0 | 0 |
| 563 | Frederik Thundercunt | 2:45.07 | 0 | 0 |
| 564 | Raiden925 | 2:45.28 | 0 | 0 |
| 565 | CoreOG | 2:45.32 | 0 | 0 |
| 566 | That One Panda | 2:45.34 | 0 | 0 |
| 567 | Luis Glacius | 2:45.37 | 0 | 0 |
| 568 | Repollo | 2:45.42 | 0 | 0 |
| 569 | Nick | 2:45.43 | 0 | 0 |
| 570 | miele dishwasher | 2:45.53 | 0 | 0 |
| 571 | Nanohm The Protogen | 2:45.71 | 0 | 0 |
| 572 | 321longshot | 2:45.75 | 0 | 0 |
| 573 | Legoyoda | 2:45.83 | 0 | 0 |
| 574 | Bohemius | 2:45.90 | 0 | 0 |
| 575 | edc | 2:46.16 | 0 | 0 |
| 576 | Simon | 2:46.17 | 0 | 0 |
| 576 | KWP | 2:46.17 | 0 | 0 |
| 576 | Jezo | 2:46.17 | 0 | 0 |
| 579 | IanRosk | 2:46.18 | 0 | 0 |
| 580 | BanDiGo | 2:46.22 | 0 | 0 |
| 581 | Dodge | 2:46.40 | 0 | 0 |
| 581 | Radahn | 2:46.40 | 0 | 0 |
| 583 | Depth | 2:46.45 | 0 | 0 |
| 584 | // Vaffe | 2:46.48 | 0 | 0 |
| 585 | Shadiest | 2:46.54 | 0 | 0 |
| 586 | Pristine | 2:46.57 | 0 | 0 |
| 587 | Dislin | 2:46.58 | 0 | 0 |
| 587 | Death Edge | 2:46.58 | 0 | 0 |
| 589 | TheBoredguyyy | 2:46.59 | 0 | 0 |
| 590 | calne | 2:46.62 | 0 | 0 |
| 591 | Orange Yoshi | 2:46.73 | 0 | 0 |
| 592 | Mired | 2:46.91 | 0 | 0 |
| 593 | [T-PP] PhiniksPlays | 2:47.07 | 0 | 0 |
| 593 | Gnarrang | 2:47.07 | 0 | 0 |
| 595 | OneCent_HD | 2:47.14 | 0 | 0 |
| 596 | R1PP | 2:47.18 | 0 | 0 |
| 597 | Fromage | 2:47.20 | 0 | 0 |
| 598 | Digiten | 2:47.30 | 0 | 0 |
| 599 | Pete | 2:47.31 | 0 | 0 |
| 599 | Billy Bat | 2:47.31 | 0 | 0 |
| 601 | Lud | Forest | 2:47.35 | 0 | 0 |
| 602 | Waifus Lord | 2:47.50 | 0 | 0 |
| 602 | RobloxUwU | 2:47.50 | 0 | 0 |
| 604 | A Very Angy Opossum | 2:47.53 | 0 | 0 |
| 605 | Phayne | 2:47.60 | 0 | 0 |
| 606 | ΣlectrσWingPixy | 2:47.66 | 0 | 0 |
| 607 | Dorey348 | 2:47.72 | 0 | 0 |
| 608 | Swash | 2:47.79 | 0 | 0 |
| 609 | Carrott | 2:47.87 | 0 | 0 |
| 610 | SunlessSoph | 2:47.88 | 0 | 0 |
| 611 | Nevorist | 2:47.89 | 0 | 0 |
| 612 | Jarek718 | 2:47.90 | 0 | 0 |
| 613 | Darklight96 | 2:47.96 | 0 | 0 |
| 614 | Jak | 2:48.01 | 0 | 0 |
| 615 | elijah_huh | 2:48.04 | 0 | 0 |
| 616 | xanthousphoenix | 2:48.05 | 0 | 0 |
| 617 | PartTimeCanadian | 2:48.06 | 0 | 0 |
| 618 | Other XIX | 2:48.11 | 0 | 0 |
| 619 | Echor | 2:48.12 | 0 | 0 |
| 620 | Double Trouble Rubble Bubble | 2:48.19 | 0 | 0 |
| 621 | 𐂃 | 2:48.20 | 0 | 0 |
| 622 | S.Kappelmann | 2:48.24 | 0 | 0 |
| 623 | Baackfisch | 2:48.29 | 0 | 0 |
| 624 | DOOM | 2:48.30 | 0 | 0 |
| 625 | Man Ray | 2:48.32 | 0 | 0 |
| 626 | SuiSidalkittEn | 2:48.34 | 0 | 0 |
| 627 | CloudBirb | 2:48.36 | 0 | 0 |
| 628 | spLoWatt | 2:48.37 | 0 | 0 |
| 629 | Varlok | 2:48.49 | 0 | 0 |
| 630 | DecentM | 2:48.80 | 0 | 0 |
| 631 | Sgt. Braphog | 2:48.83 | 0 | 0 |
| 632 | TheDoomslayer | 2:48.90 | 0 | 0 |
| 633 | Wolf | 2:49.08 | 0 | 0 |
| 634 | Stikler™ | 2:49.15 | 0 | 0 |
| 635 | Kilika | 2:49.44 | 0 | 0 |
| 636 | Lupeling | 2:49.54 | 0 | 0 |
| 637 | Spotfire | 2:49.56 | 0 | 0 |
| 638 | samson13 | 2:49.59 | 0 | 0 |
| 639 | Hirochi | 2:49.67 | 0 | 0 |
| 640 | Shroom | 2:49.78 | 0 | 0 |
| 640 | konradsworny | 2:49.78 | 0 | 0 |
| 642 | The Dank Magician | 2:49.84 | 0 | 0 |
| 643 | ZedAxiom | 2:49.89 | 0 | 0 |
| 644 | Yurirollrrir | 2:49.96 | 0 | 0 |
| 645 | Admiral Banana | 2:49.97 | 0 | 0 |
| 646 | $teveɳ | 2:50.04 | 0 | 0 |
| 647 | EnderKill98 | 2:50.05 | 0 | 0 |
| 648 | Arca | 2:50.21 | 0 | 0 |
| 649 | Despo_357 | 2:50.33 | 0 | 0 |
| 650 | ThanksForNothing | 2:50.40 | 0 | 0 |
| 651 | Phreanox | 2:50.46 | 0 | 0 |
| 652 | Чаечек ☂ | 2:50.49 | 0 | 0 |
| 653 | DJ McBirde | 2:50.52 | 0 | 0 |
| 654 | Hazylina | 2:50.55 | 0 | 0 |
| 655 | KingSizeKid | 2:50.58 | 0 | 0 |
| 656 | Achiro | 2:50.74 | 0 | 0 |
| 657 | Blushy Wushy | 2:50.94 | 0 | 0 |
| 658 | Flex | 2:51.02 | 0 | 0 |
| 659 | Amuzet | 2:51.03 | 0 | 0 |
| 660 | Moodeng | 2:51.04 | 0 | 0 |
| 661 | Raynland McNuggets | 2:51.11 | 0 | 0 |
| 662 | Squib | 2:51.15 | 0 | 0 |
| 663 | Jonny | 2:51.17 | 0 | 0 |
| 664 | NierMaia | 2:51.27 | 0 | 0 |
| 665 | A Moldy Orange | 2:51.50 | 0 | 0 |
| 666 | VectorBot | 2:51.58 | 0 | 0 |
| 667 | OnyxLock | 2:51.60 | 0 | 0 |
| 668 | Ultimate Level 100 Vegan Wizard | 2:51.61 | 0 | 0 |
| 669 | Simon Evo | 2:51.63 | 0 | 0 |
| 669 | rbrules | 2:51.63 | 0 | 0 |
| 671 | BluntButters | 2:51.73 | 0 | 0 |
| 671 | Kowsky | 2:51.73 | 0 | 0 |
| 673 | Edesto | 2:51.75 | 0 | 0 |
| 673 | Topaz95 | 2:51.75 | 0 | 0 |
| 675 | Ashton_bro | 2:51.93 | 0 | 0 |
| 676 | ArtyomA14 | 2:51.96 | 0 | 0 |
| 677 | Darealdestroyer | 2:52.14 | 0 | 0 |
| 677 | Tainted | 2:52.14 | 0 | 0 |
| 677 | Shyylock | 2:52.14 | 0 | 0 |
| 680 | Rhamley | 2:52.18 | 0 | 0 |
| 681 | Hijacker02 | 2:52.20 | 0 | 0 |
| 682 | LP_NinLory | 2:52.26 | 0 | 0 |
| 683 | Austin | 2:52.54 | 0 | 0 |
| 684 | PΙCΛPΙCΔ | 2:52.59 | 0 | 0 |
| 685 | Brando Multin | 2:52.65 | 0 | 0 |
| 686 | Machine Entity | 2:52.66 | 0 | 0 |
| 687 | jetknife | 2:52.77 | 0 | 0 |
| 688 | HoomanBeans | 2:52.83 | 0 | 0 |
| 689 | HunterPlayz | 2:52.84 | 0 | 0 |
| 690 | s00 | 2:52.91 | 0 | 0 |
| 691 | 1Hp♰ | 2:53.09 | 0 | 0 |
| 692 | Thunderclaws | 2:53.15 | 0 | 0 |
| 693 | Queritz | 2:53.27 | 0 | 0 |
| 694 | Minefreak6633 | 2:53.40 | 0 | 0 |
| 695 | Rybot | 2:53.46 | 0 | 0 |
| 696 | Sunzara | 2:53.48 | 0 | 0 |
| 697 | Mr Mysterius | 2:53.59 | 0 | 0 |
| 698 | Therio | 2:53.80 | 0 | 0 |
| 699 | XIII | 2:53.91 | 0 | 0 |
| 700 | Sniggles | 2:53.94 | 0 | 0 |
| 700 | makima-san | 2:53.94 | 0 | 0 |
| 702 | bullet babe | 2:53.95 | 0 | 0 |
| 703 | Rae Static | 2:53.96 | 0 | 0 |
| 704 | Boomer McGeezer | 2:54.08 | 0 | 0 |
| 705 | Krawly | 2:54.16 | 0 | 0 |
| 706 | Bob | 2:54.21 | 0 | 0 |
| 707 | Duke Swampy | 2:54.33 | 0 | 0 |
| 708 | Wildclaw | 2:54.34 | 0 | 0 |
| 709 | Vulduv | 2:54.44 | 0 | 0 |
| 710 | Kerusos | 2:54.45 | 0 | 0 |
| 711 | Spoon | 2:54.50 | 0 | 0 |
| 712 | HPediem | 2:54.55 | 0 | 0 |
| 713 | WorkingChickenMH | 2:54.63 | 0 | 0 |
| 713 | Hexagon240 | 2:54.63 | 0 | 0 |
| 715 | Nailll | 2:54.68 | 0 | 0 |
| 716 | Zenixic | 2:54.81 | 0 | 0 |
| 717 | Marang | 2:54.87 | 0 | 0 |
| 718 | NaterrTheBull | 2:55.06 | 0 | 0 |
| 719 | CoJo12 | 2:55.24 | 0 | 0 |
| 720 | Derdoron | 2:55.25 | 0 | 0 |
| 721 | Adrimg_rider | 2:55.33 | 0 | 0 |
| 722 | Filounderstover | 2:55.35 | 0 | 0 |
| 723 | Darkk_Chungus | 2:55.42 | 0 | 0 |
| 724 | Rhetorical Question | 2:55.55 | 0 | 0 |
| 725 | Dan | 2:55.63 | 0 | 0 |
| 726 | reik | 2:55.73 | 0 | 0 |
| 727 | EdgeMiles | 2:55.76 | 0 | 0 |
| 727 | Semtex4ya | 2:55.76 | 0 | 0 |
| 727 | Aventurain | 2:55.76 | 0 | 0 |
| 727 | Sunchipp Games | 2:55.76 | 0 | 0 |
| 731 | Seshiruseth | 2:55.80 | 0 | 0 |
| 732 | Clovendeer | 2:56.01 | 0 | 0 |
| 733 | Ember | 2:56.04 | 0 | 0 |
| 734 | Sugoi-desu (⊙‿⊙✿) | 2:56.12 | 0 | 0 |
| 735 | Expired | 2:56.22 | 0 | 0 |
| 736 | Winter's Crescendo | 2:56.28 | 0 | 0 |
| 736 | Sparks | 2:56.28 | 0 | 0 |
| 738 | Crubo | 2:56.36 | 0 | 0 |
| 739 | Zephyr Cyenta | 2:56.37 | 0 | 0 |
| 740 | the heavenly homie | 2:56.43 | 0 | 0 |
| 741 | Voxr | 2:56.53 | 0 | 0 |
| 742 | Martins Leggeul | 2:56.61 | 0 | 0 |
| 743 | Drix | 2:56.71 | 0 | 0 |
| 744 | fischpferd | 2:56.77 | 0 | 0 |
| 745 | Reinforce Virta | 2:56.82 | 0 | 0 |
| 746 | ossizorg | 2:56.85 | 0 | 0 |
| 747 | Hayaweh | 2:57.11 | 0 | 0 |
| 747 | Captain Frosty | 2:57.11 | 0 | 0 |
| 749 | MarsDevastater | 2:57.18 | 0 | 0 |
| 750 | Swayo | 2:57.26 | 0 | 0 |
| 751 | Сосёна | 2:57.27 | 0 | 0 |
| 752 | DMRakdos | 2:57.31 | 0 | 0 |
| 753 | lunaxiu | 2:57.61 | 0 | 0 |
| 754 | mazziemare | 2:57.72 | 0 | 0 |
| 755 | EonShark | 2:57.90 | 0 | 0 |
| 756 | AnalBreacher | 2:57.91 | 0 | 0 |
| 757 | 猫かわいい | 2:57.95 | 0 | 0 |
| 758 | Lambreck | 2:58.00 | 0 | 0 |
| 759 | ^1WᴀʀᴘWɪʀᴇ | 2:58.09 | 0 | 0 |
| 760 | Saliven | 2:58.12 | 0 | 0 |
| 761 | PalmTopDuck | 2:58.18 | 0 | 0 |
| 762 | Geef | 2:58.30 | 0 | 0 |
| 763 | Afromation | 2:58.33 | 0 | 0 |
| 764 | Alrunes | 2:58.40 | 0 | 0 |
| 765 | Rahn | 2:58.41 | 0 | 0 |
| 766 | Nanoot | 2:58.48 | 0 | 0 |
| 767 | Siser98 | 2:58.56 | 0 | 0 |
| 768 | BesRezen | 2:58.59 | 0 | 0 |
| 769 | Ryowulf768 | 2:58.61 | 0 | 0 |
| 769 | Rynkk | 2:58.61 | 0 | 0 |
| 771 | spires | 2:58.67 | 0 | 0 |
| 772 | sour | 2:58.69 | 0 | 0 |
| 773 | 1MBStudios | 2:58.75 | 0 | 0 |
| 774 | rilelyscastle | 2:58.77 | 0 | 0 |
| 775 | [iNk] Primus | 2:58.80 | 0 | 0 |
| 776 | Kleimann | 2:58.81 | 0 | 0 |
| 777 | Kashuzu | 2:58.82 | 0 | 0 |
| 778 | Jappen | 2:58.98 | 0 | 0 |
| 779 | FabioTheTurtle | 2:59.07 | 0 | 0 |
| 779 | Charlotte | 2:59.07 | 0 | 0 |
| 781 | ForlornStag | 2:59.18 | 0 | 0 |
| 782 | russ117 | 2:59.21 | 0 | 0 |
| 783 | ℛ𝓊𝓃𝑒 | 2:59.22 | 0 | 0 |
| 784 | Verity | 2:59.25 | 0 | 0 |
| 785 | gfreezz | 2:59.31 | 0 | 0 |
| 786 | Lightshift | 2:59.52 | 0 | 0 |
| 787 | Pinkamena Diane Pie | 2:59.81 | 0 | 0 |
| 788 | Finorza | 2:59.87 | 0 | 0 |
| 789 | Arcvale | 2:59.88 | 0 | 0 |
| 790 | Puma D. Ace | 2:59.89 | 0 | 0 |
| 791 | Ape Tea | 2:59.91 | 0 | 0 |
| 792 | Traetors | 3:00.08 | 0 | 0 |
| 793 | MOCOCHINCHOL | 3:00.15 | 0 | 0 |
| 794 | Piiec | 3:00.19 | 0 | 0 |
| 795 | Badmojo_ | 3:00.22 | 0 | 0 |
| 796 | AFRQDED | 3:00.23 | 0 | 0 |
| 797 | Apocalyptic Bunny | 3:00.26 | 0 | 0 |
| 798 | Garsti | 3:00.38 | 0 | 0 |
| 799 | Lil O.D. | 3:00.50 | 0 | 0 |
| 800 | Pacific RimJob | 3:00.55 | 0 | 0 |
| 801 | Kavracostra ˢᶜᶜᵖ | 3:00.81 | 0 | 0 |
| 802 | MERC | 3:00.91 | 0 | 0 |
| 803 | Elfiann | 3:01.26 | 0 | 0 |
| 804 | Ren-Ren | 3:01.29 | 0 | 0 |
| 805 | EmeraldSlash | 3:01.39 | 0 | 0 |
| 806 | MIAT | 3:01.45 | 0 | 0 |
| 807 | Shay | 3:01.50 | 0 | 0 |
| 807 | Yuuki Asuna | 3:01.50 | 0 | 0 |
| 809 | Old Bastard | 3:01.70 | 0 | 0 |
| 810 | Bibbit | 3:01.76 | 0 | 0 |
| 811 | Dimanchella | 3:01.82 | 0 | 0 |
| 812 | slimcake07 | 3:01.90 | 0 | 0 |
| 813 | Awesomedan | 3:01.96 | 0 | 0 |
| 814 | [NBD] PizzaHutDoxen | 3:02.02 | 0 | 0 |
| 815 | troysmith14 | 3:02.03 | 0 | 0 |
| 816 | Jester Thomas | 3:02.24 | 0 | 0 |
| 817 | Crespojazzman | 3:02.43 | 0 | 0 |
| 818 | AVeryTastyCactus | 3:02.57 | 0 | 0 |
| 819 | LOLO FAK | 3:02.62 | 0 | 0 |
| 819 | Dany | 3:02.62 | 0 | 0 |
| 821 | Sunaryt | 3:02.63 | 0 | 0 |
| 822 | BedrokiV | 3:02.72 | 0 | 0 |
| 822 | J4M3Z34 | 3:02.72 | 0 | 0 |
| 824 | Animax | 3:02.80 | 0 | 0 |
| 825 | Cathy | 3:02.87 | 0 | 0 |
| 826 | Vin Diesel Mailbox | 3:02.93 | 0 | 0 |
| 827 | Sircuit | 3:03.05 | 0 | 0 |
| 828 | Spartan117® | 3:03.27 | 0 | 0 |
| 829 | bogassado | 3:03.39 | 0 | 0 |
| 830 | yooobaaiung | 3:03.49 | 0 | 0 |
| 831 | Adrianster | 3:03.58 | 0 | 0 |
| 832 | Gurgy | 3:03.64 | 0 | 0 |
| 833 | Ion | 3:03.65 | 0 | 0 |
| 834 | REHERC | 3:03.66 | 0 | 0 |
| 835 | Sora | 3:03.68 | 0 | 0 |
| 836 | Raiyson Terrorwing | 3:03.83 | 0 | 0 |
| 837 | CrimsonFez | 3:03.88 | 0 | 0 |
| 838 | TheFluffyDragon/JBSTheGamer | 3:03.98 | 0 | 0 |
| 839 | Anrix | 3:04.10 | 0 | 0 |
| 839 | Conbron ^-^ | 3:04.10 | 0 | 0 |
| 841 | Bean | 3:04.13 | 0 | 0 |
| 842 | Teclon | 3:04.16 | 0 | 0 |
| 843 | Rolfforever | 3:04.23 | 0 | 0 |
| 844 | kurosu | 3:04.45 | 0 | 0 |
| 845 | Nova | 3:04.54 | 0 | 0 |
| 846 | Luckylock | 3:04.55 | 0 | 0 |
| 847 | Thundering Cloud | 3:04.60 | 0 | 0 |
| 848 | James | 3:04.69 | 0 | 0 |
| 849 | Saint Pierre | 3:04.73 | 0 | 0 |
| 849 | BennLivid | 3:04.73 | 0 | 0 |
| 851 | Larkman | 3:04.76 | 0 | 0 |
| 852 | Voltaic | 3:04.82 | 0 | 0 |
| 853 | JohnCorby | 3:04.83 | 0 | 0 |
| 854 | Centauri | 3:04.91 | 0 | 0 |
| 855 | RoxScout | 3:04.95 | 0 | 0 |
| 856 | E0N | 3:05.37 | 0 | 0 |
| 857 | NightxBandit | 3:05.38 | 0 | 0 |
| 858 | Frozen Dino | 3:05.43 | 0 | 0 |
| 859 | Zalky | 3:05.44 | 0 | 0 |
| 860 | ado line | 3:05.50 | 0 | 0 |
| 861 | MJD | 3:05.79 | 0 | 0 |
| 862 | Uppity Gryphon | 3:05.92 | 0 | 0 |
| 863 | Audity | 3:06.00 | 0 | 0 |
| 864 | PPTREXFFT | 3:06.02 | 0 | 0 |
| 864 | SauronGamer | 3:06.02 | 0 | 0 |
| 866 | General T Watermelons | 3:06.07 | 0 | 0 |
| 867 | cheif22 | 3:06.24 | 0 | 0 |
| 868 | AirTech | 3:06.25 | 0 | 0 |
| 869 | Archelon | 3:06.26 | 0 | 0 |
| 870 | zlisk | 3:06.34 | 0 | 0 |
| 871 | Redx | 3:06.39 | 0 | 0 |
| 872 | PVCSlayer | 3:06.49 | 0 | 0 |
| 873 | Razzbazz | 3:06.74 | 0 | 0 |
| 874 | Graviterium | 3:06.77 | 0 | 0 |
| 875 | F.L.P-e tank24 | 3:06.80 | 0 | 0 |
| 876 | Superbikeboy | 3:06.83 | 0 | 0 |
| 877 | Mazerswift | 3:06.84 | 0 | 0 |
| 878 | ⛧CR4CKERS⛧ | 3:06.85 | 0 | 0 |
| 879 | The Biggest [REDACTED] Ogre | 3:06.86 | 0 | 0 |
| 880 | Imperialbrutal | 3:06.98 | 0 | 0 |
| 881 | SelfishPlains | 3:07.03 | 0 | 0 |
| 881 | Clairity | 3:07.03 | 0 | 0 |
| 883 | Ams012101 | 3:07.09 | 0 | 0 |
| 884 | DvN | 3:07.14 | 0 | 0 |
| 885 | SPEEDYSPEEDBOI | 3:07.16 | 0 | 0 |
| 886 | Herkamer | 3:07.18 | 0 | 0 |
| 887 | Sunkaaaaaaaaan | 3:07.23 | 0 | 0 |
| 888 | Yipp | 3:07.28 | 0 | 0 |
| 889 | Gidan | 3:07.44 | 0 | 0 |
| 890 | e⁻ | 3:07.53 | 0 | 0 |
| 891 | Etria | 3:07.77 | 0 | 0 |
| 892 | starhorder | 3:07.79 | 0 | 0 |
| 893 | Hekko | 3:07.86 | 0 | 0 |
| 894 | Misuri | 3:07.89 | 0 | 0 |
| 895 | Darklight | 3:08.01 | 0 | 0 |
| 896 | pandu | 3:08.08 | 0 | 0 |
| 897 | GammaFunction | 3:08.13 | 0 | 0 |
| 898 | Draith_Vicious | 3:08.14 | 0 | 0 |
| 899 | Dumb Poo Baby | 3:08.16 | 0 | 0 |
| 900 | Sexecutioner | 3:08.23 | 0 | 0 |
| 901 | Internet Freak | 3:08.27 | 0 | 0 |
| 902 | Crazyos | 3:08.31 | 0 | 0 |
| 903 | WitchOnFire | 3:08.42 | 0 | 0 |
| 904 | Raiden | 3:08.65 | 0 | 0 |
| 905 | NaCl.The Baka | 3:08.70 | 0 | 0 |
| 906 | JaimmyShine | 3:08.98 | 0 | 0 |
| 907 | Isabella | 3:09.10 | 0 | 0 |
| 908 | DieselFace | 3:09.39 | 0 | 0 |
| 909 | RadLad25X | 3:09.42 | 0 | 0 |
| 910 | Mathias | 3:09.49 | 0 | 0 |
| 911 | DishArray | 3:09.56 | 0 | 0 |
| 912 | timanza | 3:09.70 | 0 | 0 |
| 912 | Jam Over | 3:09.70 | 0 | 0 |
| 914 | The Good Gaming Dragon | 3:09.71 | 0 | 0 |
| 915 | 54mm7 | 3:09.81 | 0 | 0 |
| 916 | AlienAnthony | 3:09.85 | 0 | 0 |
| 917 | Rat?! | 3:09.98 | 0 | 0 |
| 917 | Slax_ | 3:09.98 | 0 | 0 |
| 919 | Volt | 3:10.16 | 0 | 0 |
| 920 | Viruss | 3:10.31 | 0 | 0 |
| 921 | joshrod | 3:10.35 | 0 | 0 |
| 922 | Player W.O.N. | 3:10.36 | 0 | 0 |
| 923 | ZaptorZap | 3:10.44 | 0 | 0 |
| 924 | passe_riviere | 3:10.46 | 0 | 0 |
| 924 | Magister Ludi | 3:10.46 | 0 | 0 |
| 926 | Avvy Chav | 3:10.58 | 0 | 0 |
| 926 | Dragnar The Meme God | 3:10.58 | 0 | 0 |
| 928 | Big Chungus2010 | 3:10.61 | 0 | 0 |
| 929 | Wylde | 3:10.69 | 0 | 0 |
| 930 | KaMozo25 | 3:10.74 | 0 | 0 |
| 931 | FyreWall | 3:10.83 | 0 | 0 |
| 932 | Krull | 3:10.85 | 0 | 0 |
| 933 | Detective Man | 3:10.88 | 0 | 0 |
| 933 | Toxicologixal | 3:10.88 | 0 | 0 |
| 935 | Krogoth | 3:10.97 | 0 | 0 |
| 936 | Ahhrealpeople | 3:11.03 | 0 | 0 |
| 937 | Astrolight | 3:11.08 | 0 | 0 |
| 937 | Miller | 3:11.08 | 0 | 0 |
| 939 | Limola | 3:11.29 | 0 | 0 |
| 939 | Maugan Ra | 3:11.29 | 0 | 0 |
| 941 | shirui. | 3:11.33 | 0 | 0 |
| 942 | Snarf | 3:11.39 | 0 | 0 |
| 943 | Kumi | 3:11.40 | 0 | 0 |
| 944 | Casmo | 3:11.41 | 0 | 0 |
| 945 | Treme | 3:11.58 | 0 | 0 |
| 946 | ✯ DeathCraZy ✯ | 3:11.64 | 0 | 0 |
| 947 | Koussevitzky | 3:11.66 | 0 | 0 |
| 948 | friendly spycrab | 3:11.85 | 0 | 0 |
| 948 | Asinay | 3:11.85 | 0 | 0 |
| 950 | Buster | 3:11.88 | 0 | 0 |
| 951 | Megacrafter127 | 3:11.91 | 0 | 0 |
| 952 | Alex | 3:11.98 | 0 | 0 |
| 953 | Grimmy | 3:12.00 | 0 | 0 |
| 954 | RunningMountain | 3:12.17 | 0 | 0 |
| 955 | Basic | 3:12.32 | 0 | 0 |
| 956 | Mike kinsella | 3:12.39 | 0 | 0 |
| 957 | (つ 3 ° ) ♪ | 3:12.45 | 0 | 0 |
| 958 | Nagrom | 3:12.46 | 0 | 0 |
| 959 | D0HERRITT | 3:12.47 | 0 | 0 |
| 960 | yeehaw | 3:12.51 | 0 | 0 |
| 961 | SirWanksalot | 3:12.57 | 0 | 0 |
| 962 | Swizy | 3:12.82 | 0 | 0 |
| 963 | Tekka Croe | 3:12.92 | 0 | 0 |
| 964 | Goldziu | 3:12.99 | 0 | 0 |
| 965 | ibimsniki | 3:13.01 | 0 | 0 |
| 966 | BerriesAndCream | 3:13.22 | 0 | 0 |
| 967 | Omega_Raptors | 3:13.25 | 0 | 0 |
| 968 | Hidden Squid | 3:13.27 | 0 | 0 |
| 969 | Dorphan | 3:13.28 | 0 | 0 |
| 970 | CrimsonKlaw | 3:13.48 | 0 | 0 |
| 971 | Spuddles | 3:13.52 | 0 | 0 |
| 972 | Mr Elusive | 3:13.62 | 0 | 0 |
| 973 | Fushiggy | 3:13.81 | 0 | 0 |
| 973 | Cobaltfox41 | 3:13.81 | 0 | 0 |
| 975 | Boomii | 3:13.94 | 0 | 0 |
| 976 | ♠Midknight♠ | 3:13.98 | 0 | 0 |
| 976 | [BIT] Iroden | 3:13.98 | 0 | 0 |
| 978 | BuzZoiD | 3:14.13 | 0 | 0 |
| 979 | 문경왕개미 | 3:14.22 | 0 | 0 |
| 980 | Maximum Ed-Boy | 3:14.25 | 0 | 0 |
| 981 | Timme701 | 3:14.38 | 0 | 0 |
| 982 | Lofthouse | 3:14.51 | 0 | 0 |
| 983 | Snekis Khan ( ‵□') ︵ | 3:14.52 | 0 | 0 |
| 984 | FoxyLoon | 3:14.60 | 0 | 0 |
| 985 | sWilder9 | 3:14.66 | 0 | 0 |
| 986 | Wollkopf | 3:14.88 | 0 | 0 |
| 987 | Vivid Empress | 3:14.95 | 0 | 0 |
| 988 | MR.CH33ZZY 63 | 3:15.36 | 0 | 0 |
| 989 | Sarieon | 3:15.49 | 0 | 0 |
| 989 | Grzeboc_13 | 3:15.49 | 0 | 0 |
| 991 | sschooryy | 3:15.55 | 0 | 0 |
| 992 | Schranzinator | 3:15.71 | 0 | 0 |
| 993 | Goat_wenn | 3:15.83 | 0 | 0 |
| 994 | TheBruno | 3:15.85 | 0 | 0 |
| 995 | Alexkurts | 3:16.05 | 0 | 0 |
| 996 | ♿ | 3:16.20 | 0 | 0 |
| 997 | Turnabout Grag | 3:16.22 | 0 | 0 |
| 998 | Sample Text | 3:16.39 | 0 | 0 |
| 999 | jpfalcao | 3:16.40 | 0 | 0 |
| 1,000 | Berndbob Totkopf | 3:16.48 | 0 | 0 |
| 1,001 | Adrián | 3:16.51 | 0 | 0 |
| 1,002 | Professor Scrub | 3:16.52 | 0 | 0 |
| 1,003 | byanymeansnecessary | 3:16.61 | 0 | 0 |
| 1,004 | LINGUIÇA URBANA | 3:16.67 | 0 | 0 |
| 1,005 | Loot Hunter | 3:16.73 | 0 | 0 |
| 1,005 | SiniDash | 3:16.73 | 0 | 0 |
| 1,007 | CygnusAutomata | 3:16.77 | 0 | 0 |
| 1,008 | Stuigi | 3:16.86 | 0 | 0 |
| 1,009 | Aquila | 3:16.92 | 0 | 0 |
| 1,010 | Eagl3 | 3:16.94 | 0 | 0 |
| 1,011 | Apple | 3:17.19 | 0 | 0 |
| 1,012 | Sir Frederick F. Fazbearington I | 3:17.25 | 0 | 0 |
| 1,013 | Jos | 3:17.41 | 0 | 0 |
| 1,014 | Phil_ | 3:17.72 | 0 | 0 |
| 1,015 | Soraho | 3:17.83 | 0 | 0 |
| 1,016 | NostalgicRage | 3:17.88 | 0 | 0 |
| 1,017 | Elderas | 3:17.93 | 0 | 0 |
| 1,018 | The Boulder | 3:17.96 | 0 | 0 |
| 1,019 | Corvus and Crater | 3:17.98 | 0 | 0 |
| 1,020 | Iwa Lima | 3:18.00 | 0 | 0 |
| 1,021 | krashy | 3:18.07 | 0 | 0 |
| 1,022 | BumbleFunkMcGee | 3:18.17 | 0 | 0 |
| 1,023 | CarMcF | 3:18.24 | 0 | 0 |
| 1,024 | c_Corundum | 3:18.50 | 0 | 0 |
| 1,025 | Nielzos | 3:18.61 | 0 | 0 |
| 1,026 | Leviathos | 3:18.74 | 0 | 0 |
| 1,027 | pipsparadise21 | 3:19.12 | 0 | 0 |
| 1,028 | Raxus | 3:19.19 | 0 | 0 |
| 1,029 | Шоколадка:) | 3:19.21 | 0 | 0 |
| 1,030 | SHAaD_Sicod | 3:19.35 | 0 | 0 |
| 1,031 | T8Destroyer | 3:19.48 | 0 | 0 |
| 1,032 | Keiyo | 3:19.57 | 0 | 0 |
| 1,032 | BEPISMAN.exe | 3:19.57 | 0 | 0 |
| 1,034 | StoicSirius | 3:19.72 | 0 | 0 |
| 1,035 | Melty | 3:19.92 | 0 | 0 |
| 1,036 | Namoren | 3:20.04 | 0 | 0 |
| 1,036 | ワシねこ | 3:20.04 | 0 | 0 |
| 1,038 | Meep | 3:20.35 | 0 | 0 |
| 1,039 | Texugops☯ | 3:20.38 | 0 | 0 |
| 1,040 | Opliz jejetriton | 3:20.44 | 0 | 0 |
| 1,041 | Cylthir | 3:20.47 | 0 | 0 |
| 1,042 | Monsieur doc | 3:20.52 | 0 | 0 |
| 1,043 | Khailz | 3:20.64 | 0 | 0 |
| 1,044 | Waymint | 3:20.65 | 0 | 0 |
| 1,045 | fty | 3:20.68 | 0 | 0 |
| 1,046 | Nitrostine | 3:20.78 | 0 | 0 |
| 1,047 | Lettuce | 3:20.79 | 0 | 0 |
| 1,048 | Vencer_FRC | 3:20.92 | 0 | 0 |
| 1,049 | femptocrisis | 3:21.00 | 0 | 0 |
| 1,050 | Rjiig123 | 3:21.03 | 0 | 0 |
| 1,051 | cuba | 3:21.10 | 0 | 0 |
| 1,052 | Skrigar | 3:21.12 | 0 | 0 |
| 1,053 | Aniv | 3:21.17 | 0 | 0 |
| 1,054 | Amored Dragon | 3:21.19 | 0 | 0 |
| 1,055 | SpicySpaceSnake | 3:21.44 | 0 | 0 |
| 1,056 | Mister JT | 3:21.46 | 0 | 0 |
| 1,057 | Corey | 3:21.64 | 0 | 0 |
| 1,058 | Pr8 | 3:21.68 | 0 | 0 |
| 1,059 | Breno_SO | 3:21.80 | 0 | 0 |
| 1,060 | Tektul | 3:21.91 | 0 | 0 |
| 1,061 | Smitty WerbenJagerManJensen | 3:22.07 | 0 | 0 |
| 1,062 | kildert5 | 3:22.08 | 0 | 0 |
| 1,063 | Drakir | 3:22.14 | 0 | 0 |
| 1,064 | Otomatac | 3:22.20 | 0 | 0 |
| 1,065 | DanDMan | 3:22.27 | 0 | 0 |
| 1,066 | ICYVEVO | 3:22.45 | 0 | 0 |
| 1,066 | artyom.praim | 3:22.45 | 0 | 0 |
| 1,068 | ]Xenon[Shadow] | 3:22.59 | 0 | 0 |
| 1,069 | BattleCoder | 3:22.60 | 0 | 0 |
| 1,070 | Lilith Torres | 3:22.82 | 0 | 0 |
| 1,071 | Cerberus14 | 3:22.83 | 0 | 0 |
| 1,071 | The_Paradoxon99 | 3:22.83 | 0 | 0 |
| 1,073 | Gamga | 3:22.87 | 0 | 0 |
| 1,074 | Benji | 3:22.91 | 0 | 0 |
| 1,075 | fats and poors disrespecter | 3:22.93 | 0 | 0 |
| 1,076 | pox | 3:22.94 | 0 | 0 |
| 1,077 | Kansil | 3:22.95 | 0 | 0 |
| 1,078 | Agent Starlight | 3:23.10 | 0 | 0 |
| 1,079 | HaxTheCharizard | 3:23.21 | 0 | 0 |
| 1,080 | [BIT] Moggie | 3:23.31 | 0 | 0 |
| 1,081 | jnfred | 3:23.56 | 0 | 0 |
| 1,082 | Rat Patties | 3:23.67 | 0 | 0 |
| 1,083 | Drahcir Srewop | 3:23.71 | 0 | 0 |
| 1,083 | snakeinmyard | 3:23.71 | 0 | 0 |
| 1,085 | malevilend | 3:23.74 | 0 | 0 |
| 1,086 | BetoFlames | 3:23.81 | 0 | 0 |
| 1,087 | RiftBound Stock Available When? | 3:23.83 | 0 | 0 |
| 1,087 | G | 3:23.83 | 0 | 0 |
| 1,089 | Schneidog | 3:23.86 | 0 | 0 |
| 1,090 | Naoroji | 3:23.91 | 0 | 0 |
| 1,091 | Ara | 3:23.98 | 0 | 0 |
| 1,092 | mrg.dem | 3:24.09 | 0 | 0 |
| 1,093 | BBQ-Bacon-Pizza | 3:24.10 | 0 | 0 |
| 1,094 | Yellow | 3:24.12 | 0 | 0 |
| 1,095 | Renota | 3:24.29 | 0 | 0 |
| 1,096 | tipek360 | 3:24.41 | 0 | 0 |
| 1,097 | Hender | 3:24.42 | 0 | 0 |
| 1,098 | Nadoc | 3:24.55 | 0 | 0 |
| 1,099 | Bony Bastard | 3:24.57 | 0 | 0 |
| 1,100 | vadimchelov | 3:24.63 | 0 | 0 |
| 1,101 | Regty | 3:24.92 | 0 | 0 |
| 1,102 | Heinous Odor | 3:24.99 | 0 | 0 |
| 1,103 | R0gu3Sentin3l | 3:25.14 | 0 | 0 |
| 1,104 | North | 3:25.16 | 0 | 0 |
| 1,105 | Lawrence | 3:25.57 | 0 | 0 |
| 1,106 | Cosmic0de | 3:26.05 | 0 | 0 |
| 1,107 | Хз Ястреб | 3:26.07 | 0 | 0 |
| 1,108 | 16aroth6 | 3:26.14 | 0 | 0 |
| 1,109 | Static the Pet | 3:26.23 | 0 | 0 |
| 1,110 | SodarCZ | 3:26.33 | 0 | 0 |
| 1,111 | Booben | 3:26.35 | 0 | 0 |
| 1,112 | overshock-v15 | 3:26.44 | 0 | 0 |
| 1,113 | professional | 3:26.51 | 0 | 0 |
| 1,114 | Mimmic | 3:26.53 | 0 | 0 |
| 1,115 | Hazard | 3:26.63 | 0 | 0 |
| 1,116 | SiffyAvali | 3:26.72 | 0 | 0 |
| 1,117 | Kalimbato | 3:26.74 | 0 | 0 |
| 1,118 | Ironman_2099 | 3:26.76 | 0 | 0 |
| 1,119 | ushizi | 3:26.78 | 0 | 0 |
| 1,120 | SimuRg | 3:26.87 | 0 | 0 |
| 1,121 | Chicken Little | 3:26.88 | 0 | 0 |
| 1,122 | [NR] Miyu012 | 3:27.05 | 0 | 0 |
| 1,123 | Bratalix | 3:27.27 | 0 | 0 |
| 1,123 | Sterbin | 3:27.27 | 0 | 0 |
| 1,125 | RUBASS | 3:27.28 | 0 | 0 |
| 1,126 | joltz | 3:27.38 | 0 | 0 |
| 1,127 | Swiftwolf Yellowtail | 3:27.43 | 0 | 0 |
| 1,128 | Phoenixstorm | 3:27.58 | 0 | 0 |
| 1,128 | driima | 3:27.58 | 0 | 0 |
| 1,130 | Misc23 | 3:27.61 | 0 | 0 |
| 1,131 | Beetus | 3:27.62 | 0 | 0 |
| 1,132 | Gomorrha | 3:27.80 | 0 | 0 |
| 1,133 | JokersBullet12 | 3:27.83 | 0 | 0 |
| 1,134 | NEURALDELVER M. | 3:28.16 | 0 | 0 |
| 1,135 | r3 | 3:28.17 | 0 | 0 |
| 1,136 | Pure | 3:28.20 | 0 | 0 |
| 1,137 | sendthefish | 3:28.31 | 0 | 0 |
| 1,138 | Thoughtless | 3:28.45 | 0 | 0 |
| 1,139 | PowerLay | 3:28.47 | 0 | 0 |
| 1,140 | Dissenter | 3:28.49 | 0 | 0 |
| 1,141 | FiaLilium | 3:28.64 | 0 | 0 |
| 1,142 | Axien | 3:28.66 | 0 | 0 |
| 1,143 | Sturmi | 3:28.76 | 0 | 0 |
| 1,144 | =M|F= VictorB | 3:28.85 | 0 | 0 |
| 1,145 | catbotz | 3:28.95 | 0 | 0 |
| 1,146 | meziter260 | 3:29.01 | 0 | 0 |
| 1,147 | Quarterware | 3:29.04 | 0 | 0 |
| 1,148 | niiiiigatron | 3:29.07 | 0 | 0 |
| 1,149 | ZhelaemiyNick | 3:29.08 | 0 | 0 |
| 1,150 | Pig Tattoo | 3:29.14 | 0 | 0 |
| 1,151 | Carrots Pringle | 3:29.27 | 0 | 0 |
| 1,152 | Woot | 3:29.31 | 0 | 0 |
| 1,153 | Skuzzles | 3:29.45 | 0 | 0 |
| 1,154 | TheH | 3:29.62 | 0 | 0 |
| 1,155 | Sooth | 3:29.68 | 0 | 0 |
| 1,156 | Pesky Bee | 3:29.72 | 0 | 0 |
| 1,157 | Meisolus | 3:29.77 | 0 | 0 |
| 1,158 | Poofoo | 3:29.92 | 0 | 0 |
| 1,159 | nenadalm | 3:30.03 | 0 | 0 |
| 1,160 | Cinder_R0se | 3:30.09 | 0 | 0 |
| 1,161 | Sleepy | 3:30.45 | 0 | 0 |
| 1,162 | Para | 3:30.47 | 0 | 0 |
| 1,163 | ultravirus | 3:30.60 | 0 | 0 |
| 1,164 | Iron-Wolf | 3:30.74 | 0 | 0 |
| 1,165 | Ungarr | 3:30.79 | 0 | 0 |
| 1,166 | SolSkyline | 3:31.13 | 0 | 0 |
| 1,167 | GANBLADD | 3:31.20 | 0 | 0 |
| 1,168 | Lampshaede | 3:31.23 | 0 | 0 |
| 1,169 | DaHam | 3:31.44 | 0 | 0 |
| 1,170 | SocializingEmi | 3:31.45 | 0 | 0 |
| 1,171 | There's No "I" in Milk | 3:31.66 | 0 | 0 |
| 1,172 | CandymanDan | 3:31.79 | 0 | 0 |
| 1,173 | LemonIsland | 3:31.86 | 0 | 0 |
| 1,174 | Grimhelm Thunderblood | 3:31.91 | 0 | 0 |
| 1,175 | Numbskull | 3:31.94 | 0 | 0 |
| 1,176 | Seantifer | 3:32.09 | 0 | 0 |
| 1,177 | RagingPoet | 3:32.12 | 0 | 0 |
| 1,177 | Max Tennyson | 3:32.12 | 0 | 0 |
| 1,179 | HYDROTATIF32 | 3:32.15 | 0 | 0 |
| 1,180 | Roggee | 3:32.19 | 0 | 0 |
| 1,181 | Nephuxs | 3:32.21 | 0 | 0 |
| 1,182 | RisingHERO19 | 3:32.37 | 0 | 0 |
| 1,183 | 01011011010 | 3:32.44 | 0 | 0 |
| 1,184 | Finmorr | 3:32.62 | 0 | 0 |
| 1,185 | Sgt. Fluff | 3:32.73 | 0 | 0 |
| 1,186 | SGiB2001 | 3:32.78 | 0 | 0 |
| 1,187 | NoobMaster69 | 3:32.92 | 0 | 0 |
| 1,188 | Jeats | 3:33.22 | 0 | 0 |
| 1,189 | Tomacawk | 3:33.23 | 0 | 0 |
| 1,190 | MR Keos | 3:33.38 | 0 | 0 |
| 1,191 | InsAnarchist | 3:33.41 | 0 | 0 |
| 1,192 | Skizz | 3:33.59 | 0 | 0 |
| 1,193 | Arkemn | 3:33.61 | 0 | 0 |
| 1,194 | C4tch | 3:33.65 | 0 | 0 |
| 1,195 | DarkEnforcer | 3:33.80 | 0 | 0 |
| 1,196 | ThatOneFastGuy | 3:33.92 | 0 | 0 |
| 1,197 | Phleppse | 3:34.37 | 0 | 0 |
| 1,198 | Onur | 3:34.43 | 0 | 0 |
| 1,199 | The Prophet | 3:34.53 | 0 | 0 |
| 1,200 | fightman | 3:34.55 | 0 | 0 |
| 1,201 | bmrc97 | 3:34.63 | 0 | 0 |
| 1,202 | thechef | 3:34.67 | 0 | 0 |
| 1,203 | Beastman | 3:34.95 | 0 | 0 |
| 1,204 | <color=#00b4e0>MySavingLight | 3:35.15 | 0 | 0 |
| 1,205 | Chrno | 3:35.22 | 0 | 0 |
| 1,205 | Buff Nuts | 3:35.22 | 0 | 0 |
| 1,207 | Toastedninja | 3:35.24 | 0 | 0 |
| 1,208 | MålarN | 3:35.39 | 0 | 0 |
| 1,209 | Marko M | 3:35.42 | 0 | 0 |
| 1,210 | ShadeSlayer24 | 3:35.51 | 0 | 0 |
| 1,211 | BulletRain23 | 3:35.55 | 0 | 0 |
| 1,212 | Pipsibean | 3:35.65 | 0 | 0 |
| 1,213 | heneedsomemilk444 | 3:35.69 | 0 | 0 |
| 1,214 | Phaidros | 3:35.76 | 0 | 0 |
| 1,215 | #KallorDidNothingWrong | 3:35.89 | 0 | 0 |
| 1,216 | Pinguin | 3:36.07 | 0 | 0 |
| 1,217 | rakix | 3:36.17 | 0 | 0 |
| 1,218 | Tigui2000 | 3:36.33 | 0 | 0 |
| 1,219 | fridgelessedard | 3:36.49 | 0 | 0 |
| 1,219 | Paralogya | 3:36.49 | 0 | 0 |
| 1,221 | Wazmuth Gliefenstein | 3:36.57 | 0 | 0 |
| 1,222 | Jack | 3:36.58 | 0 | 0 |
| 1,223 | Psygro | 3:36.59 | 0 | 0 |
| 1,224 | Binko Bonko | 3:36.70 | 0 | 0 |
| 1,225 | schaboop | 3:36.82 | 0 | 0 |
| 1,226 | Delta Prime | 3:37.06 | 0 | 0 |
| 1,227 | Bing Chilling | 3:37.08 | 0 | 0 |
| 1,228 | canman | 3:37.27 | 0 | 0 |
| 1,229 | Sandi_Witch | 3:37.45 | 0 | 0 |
| 1,230 | Superdav10 | 3:37.54 | 0 | 0 |
| 1,231 | The Gaming Hamster | 3:37.75 | 0 | 0 |
| 1,232 | Rombommind | 3:37.84 | 0 | 0 |
| 1,233 | GuzzleBones | 3:37.92 | 0 | 0 |
| 1,234 | Prism Refract | 3:38.01 | 0 | 0 |
| 1,235 | Getty Image Egg Supreme | 3:38.02 | 0 | 0 |
| 1,236 | Decketio | 3:38.07 | 0 | 0 |
| 1,237 | SmolSucc | 3:38.26 | 0 | 0 |
| 1,238 | HoldenC | 3:38.34 | 0 | 0 |
| 1,239 | Lupi | 3:38.35 | 0 | 0 |
| 1,240 | Hiddelgreyk | 3:38.52 | 0 | 0 |
| 1,241 | AndonisLP | 3:38.55 | 0 | 0 |
| 1,242 | O' The Iron E | 3:38.57 | 0 | 0 |
| 1,243 | PaTrickShot Star | 3:38.59 | 0 | 0 |
| 1,244 | Jthoop | 3:38.62 | 0 | 0 |
| 1,245 | ASURA | 3:38.75 | 0 | 0 |
| 1,246 | Zeo | 3:38.77 | 0 | 0 |
| 1,247 | wang tulong | 3:38.85 | 0 | 0 |
| 1,248 | Caspetic | 3:39.18 | 0 | 0 |
| 1,249 | Papiergnomio_from_hell | 3:39.31 | 0 | 0 |
| 1,250 | gmacc930 | 3:39.43 | 0 | 0 |
| 1,251 | Emazeco | 3:39.52 | 0 | 0 |
| 1,252 | Srkudos | 3:39.64 | 0 | 0 |
| 1,253 | raiidem | 3:39.85 | 0 | 0 |
| 1,254 | Tuli | 3:39.96 | 0 | 0 |
| 1,255 | Papasmurf645 | 3:40.01 | 0 | 0 |
| 1,255 | Vyneci | 3:40.01 | 0 | 0 |
| 1,257 | TheStrangeLad | 3:40.24 | 0 | 0 |
| 1,258 | Swift | 3:40.25 | 0 | 0 |
| 1,258 | Crysest | 3:40.25 | 0 | 0 |
| 1,260 | Savage Tuna | 3:40.34 | 0 | 0 |
| 1,261 | Ornar | 3:40.73 | 0 | 0 |
| 1,262 | Mr. Grizz | 3:40.82 | 0 | 0 |
| 1,263 | Снимитие вак | 3:41.02 | 0 | 0 |
| 1,264 | Ding | 3:41.07 | 0 | 0 |
| 1,265 | Cuchi | 3:41.22 | 0 | 0 |
| 1,266 | Franny | 3:41.27 | 0 | 0 |
| 1,267 | Numbfeet | 3:41.50 | 0 | 0 |
| 1,268 | Momiji Reisen Inubashiri | 3:41.68 | 0 | 0 |
| 1,269 | LEUCiS | 3:41.72 | 0 | 0 |
| 1,269 | joakim. | 3:41.72 | 0 | 0 |
| 1,271 | canem | Phantasmagoria | 3:41.78 | 0 | 0 |
| 1,272 | Tidalwave97 | 3:41.82 | 0 | 0 |
| 1,273 | ZeeBee | 3:41.83 | 0 | 0 |
| 1,274 | L4v4 | 3:41.94 | 0 | 0 |
| 1,275 | BombLance | 3:42.21 | 0 | 0 |
| 1,276 | Satoshi | 3:42.48 | 0 | 0 |
| 1,277 | Dante | 3:42.62 | 0 | 0 |
| 1,278 | SquirrelSama | 3:42.63 | 0 | 0 |
| 1,279 | Ptoughneigh | 3:42.81 | 0 | 0 |
| 1,280 | Luxora | 3:42.89 | 0 | 0 |
| 1,281 | NoraBytes | 3:42.91 | 0 | 0 |
| 1,282 | meadg | 3:42.97 | 0 | 0 |
| 1,283 | Orev Lockhart | 3:43.08 | 0 | 0 |
| 1,284 | Kaiserfrosch | 3:43.15 | 0 | 0 |
| 1,285 | Orciencor | 3:43.30 | 0 | 0 |
| 1,286 | Winters | 3:43.35 | 0 | 0 |
| 1,287 | Pixelbo | 3:43.41 | 0 | 0 |
| 1,288 | EV | 3:43.59 | 0 | 0 |
| 1,289 | isuckass68 | 3:43.87 | 0 | 0 |
| 1,290 | delicious sandwich | 3:43.90 | 0 | 0 |
| 1,291 | Roaddon | 3:43.98 | 0 | 0 |
| 1,292 | BoostedMess | 3:44.11 | 0 | 0 |
| 1,293 | Finch | 3:44.19 | 0 | 0 |
| 1,294 | Velimor | 3:44.29 | 0 | 0 |
| 1,295 | Big_J | 3:44.36 | 0 | 0 |
| 1,296 | Tibbs | 3:44.48 | 0 | 0 |
| 1,297 | MyzEffect | 3:44.56 | 0 | 0 |
| 1,298 | Narcisska | 3:44.57 | 0 | 0 |
| 1,299 | Tarant_Horton | 3:44.67 | 0 | 0 |
| 1,300 | Dragmire | 3:44.73 | 0 | 0 |
| 1,301 | StrikeS1S. | 3:44.74 | 0 | 0 |
| 1,302 | speed | 3:44.82 | 0 | 0 |
| 1,303 | Zabava | 3:44.87 | 0 | 0 |
| 1,304 | The Flickering Remnant Effigy | 3:45.33 | 0 | 0 |
| 1,305 | Fernan | 3:45.39 | 0 | 0 |
| 1,306 | Black02 | 3:46.10 | 0 | 0 |
| 1,307 | Neneko | 3:46.28 | 0 | 0 |
| 1,308 | tyon25 | 3:46.30 | 0 | 0 |
| 1,309 | dumpBikes | 3:46.35 | 0 | 0 |
| 1,310 | RNAFA | 3:46.96 | 0 | 0 |
| 1,311 | Todd Bonzalez | 3:47.20 | 0 | 0 |
| 1,312 | Mac_SirBlickith | 3:47.29 | 0 | 0 |
| 1,313 | bacon | 3:47.31 | 0 | 0 |
| 1,314 | I Drink Your Incel Tears | 3:47.34 | 0 | 0 |
| 1,314 | Rodum | 3:47.34 | 0 | 0 |
| 1,316 | JustAlpher | 3:47.81 | 0 | 0 |
| 1,317 | NoCappuccino | 3:47.83 | 0 | 0 |
| 1,318 | BerylRose | 3:47.87 | 0 | 0 |
| 1,319 | Felynka | 3:47.93 | 0 | 0 |
| 1,320 | Sandwich | 3:48.06 | 0 | 0 |
| 1,321 | Jepplez | 3:48.26 | 0 | 0 |
| 1,322 | MusicPilot n.5 | 3:48.31 | 0 | 0 |
| 1,323 | AlpacaMan | 3:48.32 | 0 | 0 |
| 1,324 | B&Bsharpiiie | 3:48.42 | 0 | 0 |
| 1,325 | TrashMaster27 | 3:48.43 | 0 | 0 |
| 1,326 | TTV_Sixprey | 3:48.54 | 0 | 0 |
| 1,327 | Chicken_Tendy | 3:48.59 | 0 | 0 |
| 1,328 | Drift.exe | 3:48.69 | 0 | 0 |
| 1,329 | Tenth | 3:49.25 | 0 | 0 |
| 1,330 | NyaNekoEngine | 3:49.91 | 0 | 0 |
| 1,331 | Doodle | 3:50.06 | 0 | 0 |
| 1,332 | Aastran | 3:50.63 | 0 | 0 |
| 1,333 | Makusu | 3:50.88 | 0 | 0 |
| 1,334 | LucaSpeed | 3:50.89 | 0 | 0 |
| 1,335 | thom6777 | 3:51.00 | 0 | 0 |
| 1,336 | Carous | 3:51.02 | 0 | 0 |
| 1,336 | Lord | 3:51.02 | 0 | 0 |
| 1,338 | Church | 3:51.03 | 0 | 0 |
| 1,339 | MrXano | 3:51.07 | 0 | 0 |
| 1,340 | Ashen Marx | 3:51.11 | 0 | 0 |
| 1,341 | LissomChunk | 3:51.40 | 0 | 0 |
| 1,342 | FifteenBread | 3:51.67 | 0 | 0 |
| 1,343 | Yah Mo | 3:52.04 | 0 | 0 |
| 1,344 | onyxglow | 3:52.11 | 0 | 0 |
| 1,345 | Asoyman | 3:52.14 | 0 | 0 |
| 1,346 | Gaste ^w^ | 3:52.20 | 0 | 0 |
| 1,347 | BlueMage10 | 3:52.26 | 0 | 0 |
| 1,348 | Dog` | 3:52.36 | 0 | 0 |
| 1,349 | Pherouzs | 3:52.60 | 0 | 0 |
| 1,350 | - T - | 3:52.76 | 0 | 0 |
| 1,351 | Gemini | 3:52.80 | 0 | 0 |
| 1,352 | angerthosenear | 3:52.94 | 0 | 0 |
| 1,353 | GamerBojac | 3:52.99 | 0 | 0 |
| 1,354 | Barry snorevitch | 3:53.01 | 0 | 0 |
| 1,355 | AyyLmeow | 3:53.08 | 0 | 0 |
| 1,356 | ✪Сталин✪ | 3:53.11 | 0 | 0 |
| 1,357 | Robotnik00 | 3:53.81 | 0 | 0 |
| 1,357 | StikBoy | 3:53.81 | 0 | 0 |
| 1,359 | Timo | 3:54.11 | 0 | 0 |
| 1,360 | Omii.ARTT | 3:54.26 | 0 | 0 |
| 1,361 | Its_Just_Dave | 3:54.27 | 0 | 0 |
| 1,362 | Hexisbad | 3:54.30 | 0 | 0 |
| 1,363 | andrew200204 | 3:54.60 | 0 | 0 |
| 1,364 | Zenedar | 3:54.72 | 0 | 0 |
| 1,365 | Squishy | 3:54.79 | 0 | 0 |
| 1,366 | TG300 | 3:54.84 | 0 | 0 |
| 1,367 | The_Wheezer | 3:55.04 | 0 | 0 |
| 1,368 | FuriousPhoenix | 3:55.34 | 0 | 0 |
| 1,369 | Za How™ | 3:55.41 | 0 | 0 |
| 1,370 | AlveKatt | 3:55.51 | 0 | 0 |
| 1,371 | Fleabag | 3:56.15 | 0 | 0 |
| 1,372 | Monitor3437 | 3:56.39 | 0 | 0 |
| 1,373 | ReadWriteError | 3:56.52 | 0 | 0 |
| 1,374 | Earthnuker | 3:56.68 | 0 | 0 |
| 1,375 | schön Winter | 3:56.92 | 0 | 0 |
| 1,376 | H8IT | 3:57.22 | 0 | 0 |
| 1,377 | Sword&Leaf | 3:57.48 | 0 | 0 |
| 1,378 | Akazs | 3:57.95 | 0 | 0 |
| 1,379 | Teh№ [AMP] | 3:58.05 | 0 | 0 |
| 1,380 | astralFitz | 3:58.14 | 0 | 0 |
| 1,381 | JamsGaming23 | 3:58.23 | 0 | 0 |
| 1,382 | Liamzy | 3:58.25 | 0 | 0 |
| 1,383 | Kiwora | 3:58.34 | 0 | 0 |
| 1,384 | Coopstar2323 | 3:58.42 | 0 | 0 |
| 1,385 | vulnerable plate of spaghetti | 3:58.48 | 0 | 0 |
| 1,386 | Leon | 3:58.54 | 0 | 0 |
| 1,387 | Spur | 3:58.60 | 0 | 0 |
| 1,388 | GroovyDoo | 3:59.06 | 0 | 0 |
| 1,389 | moth | 3:59.28 | 0 | 0 |
| 1,390 | endertrot | 3:59.63 | 0 | 0 |
| 1,391 | ÆX | 3:59.77 | 0 | 0 |
| 1,392 | SkyCaptain502 | 3:59.79 | 0 | 0 |
| 1,393 | What a save! | 3:59.89 | 0 | 0 |
| 1,394 | Hauntedtoaster | 4:00.07 | 0 | 0 |
| 1,395 | arcarijo486 | 4:00.17 | 0 | 0 |
| 1,396 | SIGSTACKFAULT | 4:00.21 | 0 | 0 |
| 1,397 | SyringeTip | 4:00.91 | 0 | 0 |
| 1,398 | Cerberus DCXVI | 4:01.00 | 0 | 0 |
| 1,399 | Lemon | 4:01.04 | 0 | 0 |
| 1,400 | WamJamLam | 4:01.13 | 0 | 0 |
| 1,401 | Mineswee | 4:01.24 | 0 | 0 |
| 1,402 | Shadowfury333 | 4:01.43 | 0 | 0 |
| 1,403 | Skimmy Fudge | 4:01.47 | 0 | 0 |
| 1,404 | Glas | 4:01.77 | 0 | 0 |
| 1,405 | Abyss | 4:01.82 | 0 | 0 |
| 1,406 | fredyfoxx | 4:01.84 | 0 | 0 |
| 1,407 | zorankid | 4:02.32 | 0 | 0 |
| 1,408 | キング Raff 様 | 4:02.50 | 0 | 0 |
| 1,409 | Birdiot | 4:02.80 | 0 | 0 |
| 1,410 | Kale Myself | 4:02.83 | 0 | 0 |
| 1,411 | |SPQR| Toruk | 4:02.84 | 0 | 0 |
| 1,412 | fxskill | 4:02.95 | 0 | 0 |
| 1,413 | Requiem of Souls | 4:03.05 | 0 | 0 |
| 1,414 | cerebral gaming | 4:03.35 | 0 | 0 |
| 1,415 | ThetruBman | 4:03.40 | 0 | 0 |
| 1,416 | Void | 4:03.74 | 0 | 0 |
| 1,417 | Kramatus | 4:04.07 | 0 | 0 |
| 1,418 | darkarchon | 4:04.17 | 0 | 0 |
| 1,419 | ★ Angel♥~ ★ | 4:04.23 | 0 | 0 |
| 1,420 | Carebeef | 4:04.34 | 0 | 0 |
| 1,421 | Pwny | 4:04.36 | 0 | 0 |
| 1,421 | ᴼᶯᶥᵏᵃᶥᶜʰᶥ ™ | 4:04.36 | 0 | 0 |
| 1,423 | Ame | 4:04.66 | 0 | 0 |
| 1,424 | JAG | 4:04.68 | 0 | 0 |
| 1,425 | koido | 4:04.76 | 0 | 0 |
| 1,426 | playedmin16 | 4:04.90 | 0 | 0 |
| 1,427 | StephanoLight | 4:04.91 | 0 | 0 |
| 1,428 | Seere | 4:05.07 | 0 | 0 |
| 1,429 | Glory | 4:05.27 | 0 | 0 |
| 1,430 | Zarkilor | 4:05.51 | 0 | 0 |
| 1,431 | AngelEMV | 4:05.73 | 0 | 0 |
| 1,432 | Neoblastz | 4:05.76 | 0 | 0 |
| 1,433 | ADF-11F | 4:05.99 | 0 | 0 |
| 1,434 | Bonzi Buddy | 4:06.04 | 0 | 0 |
| 1,435 | Protoarc | 4:06.09 | 0 | 0 |
| 1,436 | cakemanlink | 4:06.16 | 0 | 0 |
| 1,437 | Virus Dragovar | 4:06.33 | 0 | 0 |
| 1,438 | Fangs1011 | 4:06.85 | 0 | 0 |
| 1,439 | The Large Man | 4:06.86 | 0 | 0 |
| 1,440 | Boro | 4:06.97 | 0 | 0 |
| 1,441 | Davonavik | 4:07.12 | 0 | 0 |
| 1,442 | Diaminerre | 4:07.57 | 0 | 0 |
| 1,443 | Robert243 | 4:07.69 | 0 | 0 |
| 1,444 | olivia | 4:08.44 | 0 | 0 |
| 1,445 | Spoodertron | 4:08.78 | 0 | 0 |
| 1,446 | Paranoia | 4:08.90 | 0 | 0 |
| 1,447 | frod | 4:08.96 | 0 | 0 |
| 1,448 | energize | 4:09.11 | 0 | 0 |
| 1,449 | Octane | 4:09.38 | 0 | 0 |
| 1,450 | xMagical_Lx | 4:09.52 | 0 | 0 |
| 1,451 | Ray Cat | 4:09.69 | 0 | 0 |
| 1,452 | EndlessRayn | 4:09.87 | 0 | 0 |
| 1,453 | FENT FIEND | 4:09.97 | 0 | 0 |
| 1,454 | LockStryder | 4:10.06 | 0 | 0 |
| 1,455 | El Padrastro de Firulais | 4:10.20 | 0 | 0 |
| 1,456 | Magovitch | 4:10.54 | 0 | 0 |
| 1,457 | crimes.against.art | 4:10.71 | 0 | 0 |
| 1,458 | Thr | 4:11.05 | 0 | 0 |
| 1,459 | parkerlreed [Linux represent] | 4:11.18 | 0 | 0 |
| 1,460 | Gimbler | 4:11.20 | 0 | 0 |
| 1,461 | cowo | 4:11.30 | 0 | 0 |
| 1,462 | rel | 4:11.65 | 0 | 0 |
| 1,463 | Bulka | 4:11.86 | 0 | 0 |
| 1,464 | JinckUFO | 4:12.01 | 0 | 0 |
| 1,465 | Brain | 4:12.28 | 0 | 0 |
| 1,466 | shaw | 4:12.94 | 0 | 0 |
| 1,467 | Sir Ducksworth | 4:13.03 | 0 | 0 |
| 1,468 | N_Thinker | 4:13.17 | 0 | 0 |
| 1,469 | berenji012 | 4:13.29 | 0 | 0 |
| 1,470 | T1+0 | 4:13.49 | 0 | 0 |
| 1,471 | FlantasticMad | 4:13.54 | 0 | 0 |
| 1,472 | Sassy | 4:13.64 | 0 | 0 |
| 1,473 | Zalister | 4:13.81 | 0 | 0 |
| 1,474 | Doomey | 4:14.00 | 0 | 0 |
| 1,475 | Lightbird | 4:14.18 | 0 | 0 |
| 1,476 | rz zombie | 4:14.37 | 0 | 0 |
| 1,477 | Domel | 4:14.50 | 0 | 0 |
| 1,478 | Battle00333 | 4:14.54 | 0 | 0 |
| 1,479 | Mr. K | 4:14.69 | 0 | 0 |
| 1,480 | Zimmerman | 4:14.86 | 0 | 0 |
| 1,481 | DarkShadow | 4:15.15 | 0 | 0 |
| 1,482 | Frost Bite~ | 4:15.17 | 0 | 0 |
| 1,483 | Xyvine | 4:15.34 | 0 | 0 |
| 1,484 | Gleam | 4:15.47 | 0 | 0 |
| 1,485 | Alesha170 | 4:15.57 | 0 | 0 |
| 1,486 | kenkas | 4:15.58 | 0 | 0 |
| 1,487 | eternal | 4:15.63 | 0 | 0 |
| 1,487 | racercowboy | 4:15.63 | 0 | 0 |
| 1,489 | Nyro | 4:15.94 | 0 | 0 |
| 1,490 | xeno | 4:16.39 | 0 | 0 |
| 1,491 | Crowned Clown | 4:16.47 | 0 | 0 |
| 1,492 | DeDuke | 4:16.82 | 0 | 0 |
| 1,493 | ahtnos | 4:17.36 | 0 | 0 |
| 1,494 | ромашка | 4:17.40 | 0 | 0 |
| 1,495 | svsamuelvitormaximo16 | 4:17.49 | 0 | 0 |
| 1,496 | polybius99 | 4:18.21 | 0 | 0 |
| 1,497 | Eternal_Dreamer_23 | 4:18.27 | 0 | 0 |
| 1,498 | forestbeasts | 4:18.28 | 0 | 0 |
| 1,499 | ruteqube | 4:18.35 | 0 | 0 |
| 1,500 | MrUnbecoming | 4:18.38 | 0 | 0 |
| 1,501 | Patches | 4:18.61 | 0 | 0 |
| 1,502 | SWAT | 4:18.88 | 0 | 0 |
| 1,503 | Ricecakes3 | 4:19.56 | 0 | 0 |
| 1,504 | [BIT]Tonic | 4:19.62 | 0 | 0 |
| 1,505 | HJQLF | 4:19.74 | 0 | 0 |
| 1,506 | Sir.Gibby | 4:19.76 | 0 | 0 |
| 1,507 | Sen | 4:20.11 | 0 | 0 |
| 1,508 | markschuurman1990 | 4:20.18 | 0 | 0 |
| 1,509 | Muse | 4:20.77 | 0 | 0 |
| 1,510 | c0deous ✪ | 4:20.92 | 0 | 0 |
| 1,511 | alextapfish | 4:21.22 | 0 | 0 |
| 1,512 | niyonix | 4:21.27 | 0 | 0 |
| 1,512 | Artyom-V2X | 4:21.27 | 0 | 0 |
| 1,514 | damon1245 | 4:21.33 | 0 | 0 |
| 1,515 | dizndaz | 4:21.54 | 0 | 0 |
| 1,516 | Turavis | 4:21.64 | 0 | 0 |
| 1,517 | Snowic | 4:21.75 | 0 | 0 |
| 1,518 | Shirayuki | 4:21.85 | 0 | 0 |
| 1,519 | Naix | 4:22.00 | 0 | 0 |
| 1,520 | DJRaznic | 4:22.22 | 0 | 0 |
| 1,521 | jamaicanboy | 4:22.42 | 0 | 0 |
| 1,522 | Loune Fire | 4:22.48 | 0 | 0 |
| 1,523 | Kunya The Scoot | 4:23.02 | 0 | 0 |
| 1,524 | V-master | 4:23.09 | 0 | 0 |
| 1,525 | Glypse | 4:23.21 | 0 | 0 |
| 1,526 | SP** | 4:23.60 | 0 | 0 |
| 1,527 | Shinozy | 4:23.74 | 0 | 0 |
| 1,527 | -zaz23- | 4:23.74 | 0 | 0 |
| 1,529 | Bon | 4:23.83 | 0 | 0 |
| 1,530 | Calcarious | 4:23.96 | 0 | 0 |
| 1,531 | Caradog | 4:24.02 | 0 | 0 |
| 1,532 | AdmiralTails | 4:24.03 | 0 | 0 |
| 1,533 | Grensie | 4:24.12 | 0 | 0 |
| 1,534 | DraconicBurners | 4:24.15 | 0 | 0 |
| 1,535 | Jupiter One | 4:24.18 | 0 | 0 |
| 1,536 | Gdj 24 | 4:24.29 | 0 | 0 |
| 1,537 | Coconut | 4:24.32 | 0 | 0 |
| 1,538 | MrDino67 | 4:24.50 | 0 | 0 |
| 1,539 | Lord Badong | 4:24.73 | 0 | 0 |
| 1,540 | Zamashi | 4:24.77 | 0 | 0 |
| 1,541 | iscerming | 4:24.92 | 0 | 0 |
| 1,542 | Hold my Hand | 4:25.08 | 0 | 0 |
| 1,543 | VORCHAX | 4:25.53 | 0 | 0 |
| 1,544 | Dekkosun™ | 4:26.08 | 0 | 0 |
| 1,545 | Darkjunk | 4:26.20 | 0 | 0 |
| 1,546 | PackerWolf | 4:26.39 | 0 | 0 |
| 1,547 | Mouqisti | 4:26.62 | 0 | 0 |
| 1,548 | ElClodos | 4:27.67 | 0 | 0 |
| 1,549 | Nesso | 4:28.50 | 0 | 0 |
| 1,550 | Atlas | 4:29.13 | 0 | 0 |
| 1,551 | Yuki Arika Muze | 4:29.36 | 0 | 0 |
| 1,552 | FunRizZ | 4:29.40 | 0 | 0 |
| 1,553 | beans | 4:29.66 | 0 | 0 |
| 1,554 | Yokai | 4:29.76 | 0 | 0 |
| 1,555 | PleaseNoMore | 4:30.19 | 0 | 0 |
| 1,556 | justpeace.jp | 4:30.21 | 0 | 0 |
| 1,557 | Slater | 4:30.31 | 0 | 0 |
| 1,558 | Jeżyk | 4:30.35 | 0 | 0 |
| 1,559 | TheBytemaster | 4:30.50 | 0 | 0 |
| 1,560 | αɴᴅяєαѕxᴅ ™ | 4:30.65 | 0 | 0 |
| 1,561 | SomeRsilent | 4:31.86 | 0 | 0 |
| 1,562 | violet komoa | 4:32.29 | 0 | 0 |
| 1,563 | Well Shit | 4:32.37 | 0 | 0 |
| 1,564 | 76561199053591580 | 4:32.41 | 0 | 0 |
| 1,565 | 4P | 4:32.50 | 0 | 0 |
| 1,566 | stagbeetlejuice | 4:32.69 | 0 | 0 |
| 1,567 | hell | 4:34.03 | 0 | 0 |
| 1,568 | tao | 4:34.49 | 0 | 0 |
| 1,569 | Placoo | 4:34.86 | 0 | 0 |
| 1,570 | AxiomCat | 4:36.26 | 0 | 0 |
| 1,571 | Guterson | 4:36.52 | 0 | 0 |
| 1,572 | singingsteel | 4:36.62 | 0 | 0 |
| 1,573 | Mattiator | 4:36.77 | 0 | 0 |
| 1,574 | Whiro | 4:36.89 | 0 | 0 |
| 1,575 | Witek | 4:37.40 | 0 | 0 |
| 1,576 | Yaki | 4:37.41 | 0 | 0 |
| 1,577 | 『Pepsi-Man』 | 4:37.81 | 0 | 0 |
| 1,578 | Bman77 | 4:38.30 | 0 | 0 |
| 1,579 | Zhpd2 | 4:38.82 | 0 | 0 |
| 1,580 | Cybersnewp || サイバースヌ | 4:39.03 | 0 | 0 |
| 1,581 | Rip | 4:39.25 | 0 | 0 |
| 1,582 | The Average Bluejay | 4:40.05 | 0 | 0 |
| 1,583 | Foxxy | 4:40.07 | 0 | 0 |
| 1,584 | ⭒✰☽HokuDomo☾✰⭒ | 4:40.16 | 0 | 0 |
| 1,585 | Brominator | 4:40.27 | 0 | 0 |
| 1,586 | Tan'mø | 4:40.45 | 0 | 0 |
| 1,587 | SANLISTEX | 4:41.29 | 0 | 0 |
| 1,588 | peep1234 | 4:41.44 | 0 | 0 |
| 1,589 | Ayytbom | 4:41.98 | 0 | 0 |
| 1,590 | Ar7icP3nguin | 4:42.23 | 0 | 0 |
| 1,591 | J1F2HD | 4:42.54 | 0 | 0 |
| 1,592 | Solacex | 4:42.85 | 0 | 0 |
| 1,593 | Jake | 4:42.88 | 0 | 0 |
| 1,594 | knoxisnotdead | 4:43.31 | 0 | 0 |
| 1,595 | hip crusher | 4:43.42 | 0 | 0 |
| 1,596 | Dropkick | 4:43.87 | 0 | 0 |
| 1,597 | AgentSmith | 4:44.07 | 0 | 0 |
| 1,598 | Baudolino | 4:45.32 | 0 | 0 |
| 1,599 | Banana Foggy | 4:45.71 | 0 | 0 |
| 1,600 | ə | 4:45.95 | 0 | 0 |
| 1,601 | Chester | 4:46.16 | 0 | 0 |
| 1,602 | Spark7979 | 4:46.18 | 0 | 0 |
| 1,603 | Maf | 4:47.32 | 0 | 0 |
| 1,604 | Aldebaran | 4:47.52 | 0 | 0 |
| 1,605 | Xenok | 4:48.97 | 0 | 0 |
| 1,606 | Palomo320 Mmh | 4:49.50 | 0 | 0 |
| 1,607 | Br0k3n_BrAinz | 4:49.72 | 0 | 0 |
| 1,608 | Ell | 4:49.84 | 0 | 0 |
| 1,609 | ClearSkyEternal | 4:50.54 | 0 | 0 |
| 1,610 | Dr. Diabetes | 4:50.70 | 0 | 0 |
| 1,611 | Claudio Hull | 4:50.74 | 0 | 0 |
| 1,612 | BurritoBazooka | 4:51.04 | 0 | 0 |
| 1,613 | CallofKtulu | 4:51.39 | 0 | 0 |
| 1,614 | GetBusyLivin | 4:52.25 | 0 | 0 |
| 1,615 | LunaticLuna | 4:52.28 | 0 | 0 |
| 1,616 | Abusamadres Jones | 4:52.72 | 0 | 0 |
| 1,617 | rowie324 | 4:53.01 | 0 | 0 |
| 1,618 | Autonomus | 4:53.61 | 0 | 0 |
| 1,619 | Domorrow | 4:53.67 | 0 | 0 |
| 1,620 | Rezroc | 4:53.80 | 0 | 0 |
| 1,621 | Lil Wompy | 4:54.55 | 0 | 0 |
| 1,622 | Snowstrike | 4:55.54 | 0 | 0 |
| 1,623 | TheArchangel | 4:55.77 | 0 | 0 |
| 1,624 | Aerox | 4:55.85 | 0 | 0 |
| 1,625 | NeX | 4:55.95 | 0 | 0 |
| 1,626 | Kiwi | 4:56.05 | 0 | 0 |
| 1,627 | That Thing | 4:56.12 | 0 | 0 |
| 1,628 | Jesse Persastia | 4:56.26 | 0 | 0 |
| 1,629 | fooffie | 4:58.05 | 0 | 0 |
| 1,630 | noodle beard | 4:58.21 | 0 | 0 |
| 1,631 | elThirtie | 4:58.45 | 0 | 0 |
| 1,632 | *Full of Spring* Rell | 4:58.99 | 0 | 0 |
| 1,633 | Hazel_Trans_Coyote | 4:59.53 | 0 | 0 |
| 1,634 | Stardom | 4:59.64 | 0 | 0 |
| 1,635 | Rskon | 4:59.92 | 0 | 0 |
| 1,636 | kieralectra | 5:00.14 | 0 | 0 |
| 1,637 | ToastedBrown | 5:00.61 | 0 | 0 |
| 1,638 | Grimmlock | 5:00.87 | 0 | 0 |
| 1,639 | Pilot_Ransan | 5:01.06 | 0 | 0 |
| 1,640 | Zagh | 5:01.29 | 0 | 0 |
| 1,641 | Dixie | 5:01.33 | 0 | 0 |
| 1,642 | Masta Platypus | 5:02.16 | 0 | 0 |
| 1,643 | Okami 天照 | 5:02.39 | 0 | 0 |
| 1,644 | rumi | 5:02.86 | 0 | 0 |
| 1,645 | Kelmohr | 5:03.10 | 0 | 0 |
| 1,646 | Sibsen | 5:04.19 | 0 | 0 |
| 1,647 | 🌺hashbrown🌸 | 5:04.22 | 0 | 0 |
| 1,648 | Ouranos | 5:04.46 | 0 | 0 |
| 1,649 | BaldFool | 5:05.42 | 0 | 0 |
| 1,650 | ploo | 5:05.70 | 0 | 0 |
| 1,651 | EpicRivers | 5:05.82 | 0 | 0 |
| 1,652 | Forte | 5:05.92 | 0 | 0 |
| 1,653 | TeidänHessuutenne | 5:05.99 | 0 | 0 |
| 1,654 | Ethan Oyster | 5:06.59 | 0 | 0 |
| 1,655 | Idranoid | 5:06.61 | 0 | 0 |
| 1,656 | Cloudy | 5:07.00 | 0 | 0 |
| 1,657 | Silvertail | 5:07.03 | 0 | 0 |
| 1,658 | R-M-@-L | 5:07.62 | 0 | 0 |
| 1,659 | Toppincattin | 5:08.04 | 0 | 0 |
| 1,660 | .Silver | 5:08.38 | 0 | 0 |
| 1,661 | 💃💃 | 5:08.42 | 0 | 0 |
| 1,662 | Zenyth | 5:09.13 | 0 | 0 |
| 1,663 | Renault Modus phase 2 | 5:10.16 | 0 | 0 |
| 1,664 | davislb2 | 5:10.33 | 0 | 0 |
| 1,665 | Sir Boomalot | 5:10.81 | 0 | 0 |
| 1,666 | LeoShadic345 | 5:10.91 | 0 | 0 |
| 1,667 | Seaweed McGuthery | 5:11.63 | 0 | 0 |
| 1,668 | LemonNinjas | 5:11.72 | 0 | 0 |
| 1,669 | Jeter | 5:13.08 | 0 | 0 |
| 1,670 | Psychoblade[187] | 5:13.18 | 0 | 0 |
| 1,671 | Guide Missile | 5:13.26 | 0 | 0 |
| 1,672 | Fronzykun | 5:13.45 | 0 | 0 |
| 1,673 | Lychi | 5:14.00 | 0 | 0 |
| 1,674 | Flordia man | 5:14.08 | 0 | 0 |
| 1,675 | SeansShow | 5:14.14 | 0 | 0 |
| 1,676 | Palaopi | 5:14.84 | 0 | 0 |
| 1,677 | Mr.Treit | 5:15.10 | 0 | 0 |
| 1,678 | Akaru | 5:16.22 | 0 | 0 |
| 1,679 | SlghtChancOfMrdr | 5:17.15 | 0 | 0 |
| 1,680 | 𝓠𝓲𝓾𝓫 | 5:17.26 | 0 | 0 |
| 1,681 | Spooky Space Kook | 5:17.56 | 0 | 0 |
| 1,682 | Pandamonious | 5:17.79 | 0 | 0 |
| 1,683 | Soil | 5:17.96 | 0 | 0 |
| 1,684 | SGT.{NotSooHoovy} | 5:18.42 | 0 | 0 |
| 1,685 | Weegee | 5:18.47 | 0 | 0 |
| 1,686 | Relume | 5:18.87 | 0 | 0 |
| 1,687 | Libes | 5:19.17 | 0 | 0 |
| 1,688 | xander | 5:19.39 | 0 | 0 |
| 1,689 | Hazel | 5:19.58 | 0 | 0 |
| 1,690 | Artistic Cat | 5:20.67 | 0 | 0 |
| 1,691 | Im_MegaDeath | 5:21.69 | 0 | 0 |
| 1,692 | Meat+Cheese | 5:22.39 | 0 | 0 |
| 1,693 | Ragozz | 5:23.49 | 0 | 0 |
| 1,694 | wtevin2015 | 5:24.59 | 0 | 0 |
| 1,695 | Dock | 5:25.55 | 0 | 0 |
| 1,696 | a normal dude | 5:26.32 | 0 | 0 |
| 1,697 | yegor.zenkov | 5:26.43 | 0 | 0 |
| 1,698 | DarkSide | 5:26.48 | 0 | 0 |
| 1,699 | aviarus (proton-ge) | 5:27.09 | 0 | 0 |
| 1,700 | TheHarmassist | 5:27.36 | 0 | 0 |
| 1,701 | livelyandexciting | 5:29.88 | 0 | 0 |
| 1,702 | Harmless | 5:30.17 | 0 | 0 |
| 1,703 | Stéphane le koala :) | 5:30.48 | 0 | 0 |
| 1,704 | Mancamiai_pula_Petrut | 5:30.66 | 0 | 0 |
| 1,705 | Mobius | 5:31.39 | 0 | 0 |
| 1,706 | Phaserlight | 5:32.78 | 0 | 0 |
| 1,707 | kuvni | 5:33.20 | 0 | 0 |
| 1,708 | Dave | 5:33.60 | 0 | 0 |
| 1,709 | thecook2333 | 5:34.09 | 0 | 0 |
| 1,710 | MyBad123 | 5:34.62 | 0 | 0 |
| 1,711 | Western Imperialist | 5:34.68 | 0 | 0 |
| 1,712 | Prez | 5:34.90 | 0 | 0 |
| 1,713 | ZeGURU | 5:34.93 | 0 | 0 |
| 1,714 | Fearture | 5:36.25 | 0 | 0 |
| 1,715 | snduuorm | 5:36.38 | 0 | 0 |
| 1,716 | Exoman | 5:36.43 | 0 | 0 |
| 1,717 | Mx | 5:37.03 | 0 | 0 |
| 1,718 | paX | 5:37.35 | 0 | 0 |
| 1,719 | dame.najdov | 5:37.55 | 0 | 0 |
| 1,720 | PELOPINCHO | 5:38.69 | 0 | 0 |
| 1,721 | Humphry | 5:38.79 | 0 | 0 |
| 1,722 | Zastier | 5:40.95 | 0 | 0 |
| 1,723 | rocmanx654 | 5:42.28 | 0 | 0 |
| 1,724 | GoldenDragon314 | 5:43.17 | 0 | 0 |
| 1,725 | ☆DarkDericZ☆ | 5:43.83 | 0 | 0 |
| 1,726 | Torqman | 5:44.60 | 0 | 0 |
| 1,727 | Ronald | 5:46.26 | 0 | 0 |
| 1,728 | Your Fav Baka | 5:46.79 | 0 | 0 |
| 1,729 | rob | 5:49.49 | 0 | 0 |
| 1,730 | Big Disk | 5:51.11 | 0 | 0 |
| 1,731 | Squrbles | 5:52.12 | 0 | 0 |
| 1,732 | Zloxite | 5:53.20 | 0 | 0 |
| 1,733 | MrJace | 5:54.33 | 0 | 0 |
| 1,734 | Setherouth | 5:58.56 | 0 | 0 |
| 1,735 | BlueLighted | 5:58.72 | 0 | 0 |
| 1,736 | Dad Kisser | 5:59.08 | 0 | 0 |
| 1,737 | Luttrell | 5:59.50 | 0 | 0 |
| 1,738 | ZSoup | 5:59.96 | 0 | 0 |
| 1,739 | Key House | 6:00.14 | 0 | 0 |
| 1,740 | [Dr.]Drunk Cody | 6:01.80 | 0 | 0 |
| 1,741 | Dåne / Aegh | 6:05.53 | 0 | 0 |
| 1,742 | Izcet | 6:07.45 | 0 | 0 |
| 1,743 | Vexium | 6:07.49 | 0 | 0 |
| 1,744 | TwinkTamer | 6:09.30 | 0 | 0 |
| 1,745 | MamaClockie | 6:09.84 | 0 | 0 |
| 1,746 | ็็ | 6:09.92 | 0 | 0 |
| 1,747 | FlyingAndorinha | 6:10.87 | 0 | 0 |
| 1,748 | YLin | 6:11.20 | 0 | 0 |
| 1,749 | Hothead | 6:15.17 | 0 | 0 |
| 1,750 | FROZZONO | 6:18.46 | 0 | 0 |
| 1,751 | zbigniew kucharski | 6:20.81 | 0 | 0 |
| 1,752 | Nailuj 13 | 6:21.60 | 0 | 0 |
| 1,753 | Jambott | 6:24.19 | 0 | 0 |
| 1,754 | DL | 6:41.66 | 0 | 0 |
| 1,755 | Eternity | 6:47.60 | 0 | 0 |
| 1,756 | UPSTANDINGCIV | 6:52.17 | 0 | 0 |
| 1,757 | GOOSE SATAN! | 6:53.48 | 0 | 0 |
| 1,758 | ano1v | 6:55.50 | 0 | 0 |
| 1,759 | THEFANG >,< | 6:56.83 | 0 | 0 |
| 1,760 | [deleted] | 6:58.10 | 0 | 0 |
| 1,761 | Damionf | 7:03.91 | 0 | 0 |
| 1,762 | Uncle Rusty | 7:09.86 | 0 | 0 |
| 1,763 | MasterDihtung | 7:10.57 | 0 | 0 |
| 1,764 | Hubko | 7:39.93 | 0 | 0 |
| 1,765 | Surgoe | 7:44.33 | 0 | 0 |
| 1,766 | Keysazz | 8:10.37 | 0 | 0 |
| 1,767 | Admiral Latios | 16:49.43 | 0 | 0 |
HoldGrip